Time,TemperatureF,DewpointF,PressureIn,WindDirection,WindDirectionDegrees,WindSpeedMPH,WindSpeedGustMPH,Humidity,HourlyPrecipIn,Conditions,Clouds,dailyrainin,SolarRadiationWatts/m^2,SoftwareType,DateUTC
2013-06-05 00:00:00,65.4,57.6,29.92,ENE,68,1.0,5.0,76,0.00,,,0.00,0,WeatherCatV1.15B25,2013-06-05 05:00:00,
2013-06-05 00:01:00,64.9,57.5,29.93,NE,55,1.0,3.0,77,0.00,,,0.00,0,LWC V2.10 B1813,2013-06-05 05:01:00,
2013-06-05 00:05:00,65.4,57.6,29.92,ENE,68,1.0,5.0,76,0.00,,,0.00,0,WeatherCatV1.15B25,2013-06-05 05:05:00,
2013-06-05 00:06:00,64.8,57.4,29.93,NE,55,1.0,1.0,77,0.00,,,0.00,0,LWC V2.10 B1813,2013-06-05 05:06:00,
2013-06-05 00:10:00,65.0,57.6,29.93,NE,45,1.0,4.0,77,0.00,,,0.00,0,WeatherCatV1.15B25,2013-06-05 05:10:00,
2013-06-05 00:11:00,64.8,57.4,29.93,NE,46,1.0,4.0,77,0.00,,,0.00,0,LWC V2.10 B1813,2013-06-05 05:11:00,
2013-06-05 00:15:00,65.0,57.6,29.93,NE,45,1.0,4.0,77,0.00,,,0.00,0,WeatherCatV1.15B25,2013-06-05 05:15:00,
2013-06-05 00:16:00,64.8,57.4,29.92,NE,37,5.0,6.0,77,0.00,,,0.00,0,LWC V2.10 B1813,2013-06-05 05:16:00,
2013-06-05 00:20:00,65.0,57.6,29.93,NE,45,1.0,4.0,77,0.00,,,0.00,0,WeatherCatV1.15B25,2013-06-05 05:20:00,
2013-06-05 00:21:00,64.8,57.4,29.92,NE,36,0.0,6.0,77,0.00,,,0.00,0,LWC V2.10 B1813,2013-06-05 05:21:00,
2013-06-05 00:25:00,64.8,57.4,29.93,NE,45,1.0,7.0,77,0.00,,,0.00,0,WeatherCatV1.15B25,2013-06-05 05:25:00,
2013-06-05 00:26:00,64.7,57.3,29.92,NNE,32,0.0,0.0,77,0.00,,,0.00,0,LWC V2.10 B1813,2013-06-05 05:26:00,
2013-06-05 00:30:00,64.8,57.4,29.93,NE,45,1.0,7.0,77,0.00,,,0.00,0,WeatherCatV1.15B25,2013-06-05 05:30:00,
2013-06-05 00:31:00,64.6,57.2,29.92,NNE,16,3.0,9.0,77,0.00,,,0.00,0,LWC V2.10 B1813,2013-06-05 05:31:00,
2013-06-05 00:35:00,64.8,57.4,29.93,NE,45,1.0,7.0,77,0.00,,,0.00,0,WeatherCatV1.15B25,2013-06-05 05:35:00,
2013-06-05 00:36:00,64.6,57.2,29.92,NNE,15,0.0,5.0,77,0.00,,,0.00,0,LWC V2.10 B1813,2013-06-05 05:36:00,
2013-06-05 00:40:00,64.8,57.4,29.92,NE,45,1.0,7.0,77,0.00,,,0.00,0,WeatherCatV1.15B25,2013-06-05 05:40:00,
2013-06-05 00:41:00,64.6,57.6,29.92,NNE,19,2.0,5.0,78,0.00,,,0.00,0,LWC V2.10 B1813,2013-06-05 05:41:00,
2013-06-05 00:45:00,64.8,57.4,29.92,NE,45,1.0,7.0,77,0.00,,,0.00,0,WeatherCatV1.15B25,2013-06-05 05:45:00,
2013-06-05 00:46:00,64.5,57.5,29.92,NNE,15,0.0,4.0,78,0.00,,,0.00,0,LWC V2.10 B1813,2013-06-05 05:46:00,
2013-06-05 00:50:00,64.8,57.4,29.92,NE,45,1.0,7.0,77,0.00,,,0.00,0,WeatherCatV1.15B25,2013-06-05 05:50:00,
2013-06-05 00:51:00,64.5,57.5,29.92,NNE,17,0.0,2.0,78,0.00,,,0.00,0,LWC V2.10 B1813,2013-06-05 05:51:00,
2013-06-05 00:55:00,64.6,57.6,29.92,NNE,22,2.0,9.0,78,0.00,,,0.00,0,WeatherCatV1.15B25,2013-06-05 05:55:00,
2013-06-05 00:56:00,64.5,57.5,29.93,NNE,17,0.0,2.0,78,0.00,,,0.00,0,LWC V2.10 B1813,2013-06-05 05:56:00,
2013-06-05 01:00:00,64.6,57.6,29.92,NNE,22,2.0,9.0,78,0.00,,,0.00,0,WeatherCatV1.15B25,2013-06-05 06:00:00,
2013-06-05 01:01:00,64.4,57.4,29.93,NNE,17,0.0,0.0,78,0.00,,,0.00,0,LWC V2.10 B1813,2013-06-05 06:01:00,
2013-06-05 01:05:00,64.6,57.6,29.92,NNE,22,2.0,9.0,78,0.00,,,0.00,0,WeatherCatV1.15B25,2013-06-05 06:05:00,
2013-06-05 01:06:00,64.3,57.3,29.94,NNE,17,0.0,0.0,78,0.00,,,0.00,0,LWC V2.10 B1813,2013-06-05 06:06:00,
2013-06-05 01:10:00,64.5,57.5,29.93,NNE,22,1.0,5.0,78,0.00,,,0.00,0,WeatherCatV1.15B25,2013-06-05 06:10:00,
2013-06-05 01:11:00,64.1,57.1,29.94,NNE,17,4.0,6.0,78,0.00,,,0.00,0,LWC V2.10 B1813,2013-06-05 06:11:00,
2013-06-05 01:15:00,64.5,57.5,29.93,NNE,22,1.0,5.0,78,0.00,,,0.00,0,WeatherCatV1.15B25,2013-06-05 06:15:00,
2013-06-05 01:16:00,64.1,57.1,29.94,NNE,20,2.0,3.0,78,0.00,,,0.00,0,LWC V2.10 B1813,2013-06-05 06:16:00,
2013-06-05 01:20:00,64.5,57.5,29.93,NNE,22,1.0,5.0,78,0.00,,,0.00,0,WeatherCatV1.15B25,2013-06-05 06:20:00,
2013-06-05 01:21:00,64.0,57.0,29.94,NNE,14,0.0,4.0,78,0.00,,,0.00,0,LWC V2.10 B1813,2013-06-05 06:21:00,
2013-06-05 01:25:00,64.2,57.2,29.94,NNE,22,1.0,6.0,78,0.00,,,0.00,0,WeatherCatV1.15B25,2013-06-05 06:25:00,
2013-06-05 01:26:00,63.9,56.9,29.94,NNE,14,0.0,3.0,78,0.00,,,0.00,0,LWC V2.10 B1813,2013-06-05 06:26:00,
2013-06-05 01:30:00,64.2,57.2,29.94,NNE,22,1.0,6.0,78,0.00,,,0.00,0,WeatherCatV1.15B25,2013-06-05 06:30:00,
2013-06-05 01:31:00,63.8,56.8,29.94,NNE,15,1.0,2.0,78,0.00,,,0.00,0,LWC V2.10 B1813,2013-06-05 06:31:00,
2013-06-05 01:35:00,64.2,57.2,29.94,NNE,22,1.0,6.0,78,0.00,,,0.00,0,WeatherCatV1.15B25,2013-06-05 06:35:00,
2013-06-05 01:36:00,63.7,56.7,29.94,NNE,15,0.0,0.0,78,0.00,,,0.00,0,LWC V2.10 B1813,2013-06-05 06:36:00,
2013-06-05 01:40:00,64.0,57.0,29.94,NNE,22,1.0,7.0,78,0.00,,,0.00,0,WeatherCatV1.15B25,2013-06-05 06:40:00,
2013-06-05 01:41:00,63.6,56.6,29.94,NNE,15,0.0,0.0,78,0.00,,,0.00,0,LWC V2.10 B1813,2013-06-05 06:41:00,
2013-06-05 01:45:00,64.0,57.0,29.94,NNE,22,1.0,7.0,78,0.00,,,0.00,0,WeatherCatV1.15B25,2013-06-05 06:45:00,
2013-06-05 01:46:00,63.4,56.4,29.94,North,5,8.0,10.0,78,0.00,,,0.00,0,LWC V2.10 B1813,2013-06-05 06:46:00,
2013-06-05 01:50:00,64.0,57.0,29.94,NNE,22,1.0,7.0,78,0.00,,,0.00,0,WeatherCatV1.15B25,2013-06-05 06:50:00,
2013-06-05 01:51:00,63.4,56.4,29.93,NNE,19,3.0,11.0,78,0.00,,,0.00,0,LWC V2.10 B1813,2013-06-05 06:51:00,
2013-06-05 01:55:00,63.7,56.7,29.94,NNE,22,1.0,9.0,78,0.00,,,0.00,0,WeatherCatV1.15B25,2013-06-05 06:55:00,
2013-06-05 01:56:00,63.3,56.3,29.93,NNE,15,6.0,14.0,78,0.00,,,0.00,0,LWC V2.10 B1813,2013-06-05 06:56:00,
2013-06-05 02:00:00,63.7,56.7,29.94,NNE,22,1.0,9.0,78,0.00,,,0.00,0,WeatherCatV1.15B25,2013-06-05 07:00:00,
2013-06-05 02:01:00,63.3,55.6,29.94,NNE,13,5.0,13.0,76,0.00,,,0.00,0,LWC V2.10 B1813,2013-06-05 07:01:00,
2013-06-05 02:05:00,63.7,56.7,29.94,NNE,22,1.0,9.0,78,0.00,,,0.00,0,WeatherCatV1.15B25,2013-06-05 07:05:00,
2013-06-05 02:06:00,63.3,54.9,29.94,NE,39,0.0,13.0,74,0.00,,,0.00,0,LWC V2.10 B1813,2013-06-05 07:06:00,
2013-06-05 02:10:00,63.4,55.7,29.93,NNE,22,5.0,14.0,76,0.00,,,0.00,0,WeatherCatV1.15B25,2013-06-05 07:10:00,
2013-06-05 02:11:00,63.3,54.5,29.94,NNE,13,0.0,12.0,73,0.00,,,0.00,0,LWC V2.10 B1813,2013-06-05 07:11:00,
2013-06-05 02:15:00,63.4,55.7,29.93,NNE,22,5.0,14.0,76,0.00,,,0.00,0,WeatherCatV1.15B25,2013-06-05 07:15:00,
2013-06-05 02:16:00,63.2,53.6,29.94,NNE,21,3.0,14.0,71,0.00,,,0.00,0,LWC V2.10 B1813,2013-06-05 07:16:00,
2013-06-05 02:20:00,63.4,55.7,29.93,NNE,22,5.0,14.0,76,0.00,,,0.00,0,WeatherCatV1.15B25,2013-06-05 07:20:00,
2013-06-05 02:21:00,63.1,53.2,29.94,NNE,16,4.0,9.0,70,0.00,,,0.00,0,LWC V2.10 B1813,2013-06-05 07:21:00,
2013-06-05 02:25:00,63.3,54.1,29.94,NNE,22,4.0,16.0,72,0.00,,,0.00,0,WeatherCatV1.15B25,2013-06-05 07:25:00,
2013-06-05 02:26:00,62.9,53.0,29.94,NNE,28,2.0,9.0,70,0.00,,,0.00,0,LWC V2.10 B1813,2013-06-05 07:26:00,
2013-06-05 02:30:00,63.3,54.1,29.94,NNE,22,4.0,16.0,72,0.00,,,0.00,0,WeatherCatV1.15B25,2013-06-05 07:30:00,
2013-06-05 02:31:00,62.7,52.8,29.93,North,0,1.0,4.0,70,0.00,,,0.00,0,LWC V2.10 B1813,2013-06-05 07:31:00,
2013-06-05 02:35:00,63.3,54.1,29.94,NNE,22,4.0,16.0,72,0.00,,,0.00,0,WeatherCatV1.15B25,2013-06-05 07:35:00,
2013-06-05 02:36:00,62.4,52.5,29.93,NW,325,1.0,10.0,70,0.00,,,0.00,0,LWC V2.10 B1813,2013-06-05 07:36:00,
2013-06-05 02:40:00,63.1,53.2,29.93,NNE,22,4.0,12.0,70,0.00,,,0.00,0,WeatherCatV1.15B25,2013-06-05 07:40:00,
2013-06-05 02:41:00,62.2,52.3,29.94,NNE,13,3.0,10.0,70,0.00,,,0.00,0,LWC V2.10 B1813,2013-06-05 07:41:00,
2013-06-05 02:45:00,63.1,53.2,29.93,NNE,22,4.0,12.0,70,0.00,,,0.00,0,WeatherCatV1.15B25,2013-06-05 07:45:00,
2013-06-05 02:46:00,61.9,51.6,29.94,North,355,7.0,15.0,69,0.00,,,0.00,0,LWC V2.10 B1813,2013-06-05 07:46:00,
2013-06-05 02:50:00,63.1,53.2,29.93,NNE,22,4.0,12.0,70,0.00,,,0.00,0,WeatherCatV1.15B25,2013-06-05 07:50:00,
2013-06-05 02:51:00,61.9,51.6,29.96,NNE,26,6.0,6.0,69,0.00,,,0.00,0,LWC V2.10 B1813,2013-06-05 07:51:00,
2013-06-05 02:55:00,62.4,52.1,29.94,NNE,22,3.0,12.0,69,0.00,,,0.00,0,WeatherCatV1.15B25,2013-06-05 07:55:00,
2013-06-05 02:56:00,61.8,51.1,29.96,NE,44,6.0,13.0,68,0.00,,,0.00,0,LWC V2.10 B1813,2013-06-05 07:56:00,
2013-06-05 03:00:00,62.4,52.1,29.94,NNE,22,3.0,12.0,69,0.00,,,0.00,0,WeatherCatV1.15B25,2013-06-05 08:00:00,
2013-06-05 03:01:00,61.6,50.9,29.96,NNE,22,12.0,12.0,68,0.00,,,0.00,0,LWC V2.10 B1813,2013-06-05 08:01:00,
2013-06-05 03:05:00,62.4,52.1,29.94,NNE,22,3.0,12.0,69,0.00,,,0.00,0,WeatherCatV1.15B25,2013-06-05 08:05:00,
2013-06-05 03:06:00,61.3,50.6,29.96,North,355,7.0,17.0,68,0.00,,,0.00,0,LWC V2.10 B1813,2013-06-05 08:06:00,
2013-06-05 03:10:00,61.8,51.1,29.96,NNW,338,6.0,15.0,68,0.00,,,0.00,0,WeatherCatV1.15B25,2013-06-05 08:10:00,
2013-06-05 03:11:00,60.8,50.2,29.96,NW,315,6.0,15.0,68,0.00,,,0.00,0,LWC V2.10 B1813,2013-06-05 08:11:00,
2013-06-05 03:15:00,61.8,51.1,29.96,NNW,338,6.0,15.0,68,0.00,,,0.00,0,WeatherCatV1.15B25,2013-06-05 08:15:00,
2013-06-05 03:16:00,60.5,50.3,29.96,NNE,16,12.0,16.0,69,0.00,,,0.00,0,LWC V2.10 B1813,2013-06-05 08:16:00,
2013-06-05 03:20:00,61.8,51.1,29.96,NNW,338,6.0,15.0,68,0.00,,,0.00,0,WeatherCatV1.15B25,2013-06-05 08:20:00,
2013-06-05 03:21:00,60.3,50.1,29.96,NNE,28,4.0,17.0,69,0.00,,,0.00,0,LWC V2.10 B1813,2013-06-05 08:21:00,
2013-06-05 03:25:00,61.2,50.9,29.96,NNE,22,7.0,25.0,69,0.00,,,0.00,0,WeatherCatV1.15B25,2013-06-05 08:25:00,
2013-06-05 03:26:00,60.0,49.8,29.96,NNE,20,10.0,16.0,69,0.00,,,0.00,0,LWC V2.10 B1813,2013-06-05 08:26:00,
2013-06-05 03:30:00,61.2,50.9,29.96,NNE,22,7.0,25.0,69,0.00,,,0.00,0,WeatherCatV1.15B25,2013-06-05 08:30:00,
2013-06-05 03:31:00,59.8,49.6,29.96,NNE,21,6.0,17.0,69,0.00,,,0.00,0,LWC V2.10 B1813,2013-06-05 08:31:00,
2013-06-05 03:35:00,61.2,50.9,29.96,NNE,22,7.0,25.0,69,0.00,,,0.00,0,WeatherCatV1.15B25,2013-06-05 08:35:00,
2013-06-05 03:36:00,59.6,49.8,29.96,NW,325,3.0,13.0,70,0.00,,,0.00,0,LWC V2.10 B1813,2013-06-05 08:36:00,
2013-06-05 03:40:00,60.2,50.0,29.96,NNE,22,8.0,21.0,69,0.00,,,0.00,0,WeatherCatV1.15B25,2013-06-05 08:40:00,
2013-06-05 03:41:00,59.4,49.6,29.96,North,5,4.0,12.0,70,0.00,,,0.00,0,LWC V2.10 B1813,2013-06-05 08:41:00,
2013-06-05 03:45:00,60.2,50.0,29.96,NNE,22,8.0,21.0,69,0.00,,,0.00,0,WeatherCatV1.15B25,2013-06-05 08:45:00,
2013-06-05 03:46:00,59.3,49.5,29.96,ENE,65,3.0,12.0,70,0.00,,,0.00,0,LWC V2.10 B1813,2013-06-05 08:46:00,
2013-06-05 03:50:00,60.2,50.0,29.96,NNE,22,8.0,21.0,69,0.00,,,0.00,0,WeatherCatV1.15B25,2013-06-05 08:50:00,
2013-06-05 03:51:00,59.0,49.2,29.95,NNE,12,3.0,9.0,70,0.00,,,0.00,0,LWC V2.10 B1813,2013-06-05 08:51:00,
2013-06-05 03:55:00,59.6,49.8,29.96,NNE,22,6.0,17.0,70,0.00,,,0.00,0,WeatherCatV1.15B25,2013-06-05 08:55:00,
2013-06-05 03:56:00,59.0,49.2,29.95,NW,317,6.0,18.0,70,0.00,,,0.00,0,LWC V2.10 B1813,2013-06-05 08:56:00,
2013-06-05 04:00:00,59.6,49.8,29.96,NNE,22,6.0,17.0,70,0.00,,,0.00,0,WeatherCatV1.15B25,2013-06-05 09:00:00,
2013-06-05 04:01:00,59.0,49.6,29.95,NNE,32,3.0,14.0,71,0.00,,,0.00,0,LWC V2.10 B1813,2013-06-05 09:01:00,
2013-06-05 04:05:00,59.6,49.8,29.96,NNE,22,6.0,17.0,70,0.00,,,0.00,0,WeatherCatV1.15B25,2013-06-05 09:05:00,
2013-06-05 04:06:00,58.9,49.5,29.95,NNE,29,3.0,14.0,71,0.00,,,0.00,0,LWC V2.10 B1813,2013-06-05 09:06:00,
2013-06-05 04:10:00,59.1,49.7,29.95,North,0,6.0,18.0,71,0.00,,,0.00,0,WeatherCatV1.15B25,2013-06-05 09:10:00,
2013-06-05 04:11:00,58.7,49.3,29.95,NNE,17,5.0,12.0,71,0.00,,,0.00,0,LWC V2.10 B1813,2013-06-05 09:11:00,
2013-06-05 04:15:00,59.1,49.7,29.95,North,0,6.0,18.0,71,0.00,,,0.00,0,WeatherCatV1.15B25,2013-06-05 09:15:00,
2013-06-05 04:16:00,58.6,49.6,29.95,NE,38,12.0,15.0,72,0.00,,,0.00,0,LWC V2.10 B1813,2013-06-05 09:16:00,
2013-06-05 04:20:00,59.1,49.7,29.95,North,0,6.0,18.0,71,0.00,,,0.00,0,WeatherCatV1.15B25,2013-06-05 09:20:00,
2013-06-05 04:21:00,58.6,49.6,29.96,NNE,15,3.0,10.0,72,0.00,,,0.00,0,LWC V2.10 B1813,2013-06-05 09:21:00,
2013-06-05 04:25:00,58.9,49.9,29.95,NNE,22,5.0,17.0,72,0.00,,,0.00,0,WeatherCatV1.15B25,2013-06-05 09:25:00,
2013-06-05 04:26:00,58.5,49.5,29.97,NE,41,10.0,11.0,72,0.00,,,0.00,0,LWC V2.10 B1813,2013-06-05 09:26:00,
2013-06-05 04:30:00,58.9,49.9,29.95,NNE,22,5.0,17.0,72,0.00,,,0.00,0,WeatherCatV1.15B25,2013-06-05 09:30:00,
2013-06-05 04:31:00,58.4,49.0,29.97,NE,52,10.0,11.0,71,0.00,,,0.00,0,LWC V2.10 B1813,2013-06-05 09:31:00,
2013-06-05 04:35:00,58.9,49.9,29.95,NNE,22,5.0,17.0,72,0.00,,,0.00,0,WeatherCatV1.15B25,2013-06-05 09:35:00,
2013-06-05 04:36:00,57.8,48.8,29.97,NE,49,5.0,6.0,72,0.00,,,0.00,0,LWC V2.10 B1813,2013-06-05 09:36:00,
2013-06-05 04:40:00,58.5,49.1,29.97,NNE,22,4.0,16.0,71,0.00,,,0.00,0,WeatherCatV1.15B25,2013-06-05 09:40:00,
2013-06-05 04:41:00,57.2,49.0,29.97,NW,326,7.0,9.0,74,0.00,,,0.00,0,LWC V2.10 B1813,2013-06-05 09:41:00,
2013-06-05 04:45:00,58.5,49.1,29.97,NNE,22,4.0,16.0,71,0.00,,,0.00,0,WeatherCatV1.15B25,2013-06-05 09:45:00,
2013-06-05 04:46:00,56.7,49.2,29.97,North,351,4.0,5.0,76,0.00,,,0.00,0,LWC V2.10 B1813,2013-06-05 09:46:00,
2013-06-05 04:50:00,58.5,49.1,29.97,NNE,22,4.0,16.0,71,0.00,,,0.00,0,WeatherCatV1.15B25,2013-06-05 09:50:00,
2013-06-05 04:51:00,56.2,49.1,29.97,NNW,340,1.0,12.0,77,0.00,,,0.00,0,LWC V2.10 B1813,2013-06-05 09:51:00,
2013-06-05 04:55:00,57.7,49.8,29.97,NNE,22,5.0,16.0,75,0.00,,,0.00,0,WeatherCatV1.15B25,2013-06-05 09:55:00,
2013-06-05 04:56:00,55.9,49.1,29.96,NNE,29,3.0,16.0,78,0.00,,,0.01,0,LWC V2.10 B1813,2013-06-05 09:56:00,
2013-06-05 05:00:00,57.7,49.8,29.97,NNE,22,5.0,16.0,75,0.00,,,0.00,0,WeatherCatV1.15B25,2013-06-05 10:00:00,
2013-06-05 05:01:00,55.3,48.9,29.96,North,0,3.0,6.0,79,0.31,,,0.03,0,LWC V2.10 B1813,2013-06-05 10:01:00,
2013-06-05 05:05:00,57.7,49.8,29.97,NNE,22,5.0,16.0,75,0.00,,,0.00,0,WeatherCatV1.15B25,2013-06-05 10:05:00,
2013-06-05 05:06:00,54.7,49.0,29.96,North,355,5.0,6.0,81,0.19,,,0.05,0,LWC V2.10 B1813,2013-06-05 10:06:00,
2013-06-05 05:10:00,56.2,49.8,29.96,NNE,22,5.0,16.0,79,0.32,,,0.00,0,WeatherCatV1.15B25,2013-06-05 10:10:00,
2013-06-05 05:11:00,54.2,48.8,29.96,NNW,348,3.0,9.0,82,0.09,,,0.05,0,LWC V2.10 B1813,2013-06-05 10:11:00,
2013-06-05 05:15:00,56.2,49.8,29.96,NNE,22,5.0,16.0,79,0.32,,,0.00,0,WeatherCatV1.15B25,2013-06-05 10:15:00,
2013-06-05 05:16:00,54.1,49.1,29.96,NNE,24,7.0,11.0,83,0.05,,,0.05,0,LWC V2.10 B1813,2013-06-05 10:16:00,
2013-06-05 05:20:00,56.2,49.8,29.96,NNE,22,5.0,16.0,79,0.32,,,0.00,0,WeatherCatV1.15B25,2013-06-05 10:20:00,
2013-06-05 05:21:00,53.9,48.5,29.96,North,0,5.0,6.0,82,0.04,,,0.05,0,LWC V2.10 B1813,2013-06-05 10:21:00,
2013-06-05 05:25:00,54.6,49.5,29.96,NE,45,3.0,12.0,83,0.32,,,0.00,0,WeatherCatV1.15B25,2013-06-05 10:25:00,
2013-06-05 05:26:00,53.7,48.0,29.97,North,10,5.0,10.0,81,0.00,,,0.05,0,LWC V2.10 B1813,2013-06-05 10:26:00,
2013-06-05 05:30:00,54.6,49.5,29.96,NE,45,3.0,12.0,83,0.32,,,0.00,0,WeatherCatV1.15B25,2013-06-05 10:30:00,
2013-06-05 05:31:00,53.7,48.0,29.97,NNE,25,0.0,9.0,81,0.00,,,0.05,0,LWC V2.10 B1813,2013-06-05 10:31:00,
2013-06-05 05:35:00,54.6,49.5,29.96,NE,45,3.0,12.0,83,0.32,,,0.00,0,WeatherCatV1.15B25,2013-06-05 10:35:00,
2013-06-05 05:36:00,53.6,47.6,29.98,ENE,57,4.0,16.0,80,0.00,,,0.05,0,LWC V2.10 B1813,2013-06-05 10:36:00,
2013-06-05 05:37:00,53.5,47.5,29.98,NNW,340,3.0,16.0,80,0.00,,,0.05,0,LWC V2.10 B1813,2013-06-05 10:37:00,
2013-06-05 05:40:00,53.8,48.1,29.97,NNE,22,4.0,13.0,81,0.00,,,0.00,0,WeatherCatV1.15B25,2013-06-05 10:40:00,
2013-06-05 05:41:00,53.4,47.1,29.99,NNE,19,6.0,10.0,79,0.00,,,0.05,0,LWC V2.10 B1813,2013-06-05 10:41:00,
2013-06-05 05:45:00,53.8,48.1,29.97,NNE,22,4.0,13.0,81,0.00,,,0.00,0,WeatherCatV1.15B25,2013-06-05 10:45:00,
2013-06-05 05:46:00,53.3,46.6,29.99,North,9,10.0,12.0,78,0.00,,,0.05,0,LWC V2.10 B1813,2013-06-05 10:46:00,
2013-06-05 05:50:00,53.8,48.1,29.97,NNE,22,4.0,13.0,81,0.00,,,0.00,0,WeatherCatV1.15B25,2013-06-05 10:50:00,
2013-06-05 05:51:00,53.3,46.6,29.99,North,349,5.0,9.0,78,0.00,,,0.05,0,LWC V2.10 B1813,2013-06-05 10:51:00,
2013-06-05 05:55:00,53.5,47.2,29.99,North,0,4.0,16.0,79,0.00,,,0.00,0,WeatherCatV1.15B25,2013-06-05 10:55:00,
2013-06-05 05:56:00,53.2,46.2,30.00,NNE,19,10.0,22.0,77,0.00,,,0.05,0,LWC V2.10 B1813,2013-06-05 10:56:00,
2013-06-05 06:00:00,53.5,47.2,29.99,North,0,4.0,16.0,79,0.00,,,0.00,0,WeatherCatV1.15B25,2013-06-05 11:00:00,
2013-06-05 06:01:00,53.2,46.2,30.00,NE,44,0.0,7.0,77,0.00,,,0.05,0,LWC V2.10 B1813,2013-06-05 11:01:00,
2013-06-05 06:05:00,53.5,47.2,29.99,North,0,4.0,16.0,79,0.00,,,0.00,0,WeatherCatV1.15B25,2013-06-05 11:05:00,
2013-06-05 06:06:00,53.1,46.1,30.00,ENE,59,4.0,10.0,77,0.00,,,0.05,0,LWC V2.10 B1813,2013-06-05 11:06:00,
2013-06-05 06:10:00,53.3,46.3,30.00,NE,45,5.0,22.0,77,0.00,,,0.00,0,WeatherCatV1.15B25,2013-06-05 11:10:00,
2013-06-05 06:11:00,53.1,46.1,30.01,NNW,331,4.0,10.0,77,0.00,,,0.05,0,LWC V2.10 B1813,2013-06-05 11:11:00,
2013-06-05 06:15:00,53.3,46.3,30.00,NE,45,5.0,22.0,77,0.00,,,0.00,0,WeatherCatV1.15B25,2013-06-05 11:15:00,
2013-06-05 06:16:00,53.0,46.0,30.01,North,10,4.0,10.0,77,0.00,,,0.05,7,LWC V2.10 B1813,2013-06-05 11:16:00,
2013-06-05 06:20:00,53.3,46.3,30.00,NE,45,5.0,22.0,77,0.00,,,0.00,0,WeatherCatV1.15B25,2013-06-05 11:20:00,
2013-06-05 06:21:00,53.0,46.0,30.02,NE,37,0.0,12.0,77,0.00,,,0.05,11,LWC V2.10 B1813,2013-06-05 11:21:00,
2013-06-05 06:25:00,53.1,46.1,30.01,NE,45,4.0,14.0,77,0.00,,,0.00,1,WeatherCatV1.15B25,2013-06-05 11:25:00,
2013-06-05 06:26:00,52.9,45.9,30.02,NNW,327,1.0,9.0,77,0.00,,,0.05,12,LWC V2.10 B1813,2013-06-05 11:26:00,
2013-06-05 06:30:00,53.1,46.1,30.01,NE,45,4.0,14.0,77,0.00,,,0.00,1,WeatherCatV1.15B25,2013-06-05 11:30:00,
2013-06-05 06:31:00,53.0,46.0,30.03,NNE,30,0.0,2.0,77,0.00,,,0.05,16,LWC V2.10 B1813,2013-06-05 11:31:00,
2013-06-05 06:35:00,53.1,46.1,30.01,NE,45,4.0,14.0,77,0.00,,,0.00,1,WeatherCatV1.15B25,2013-06-05 11:35:00,
2013-06-05 06:36:00,53.0,46.0,30.03,North,5,2.0,6.0,77,0.00,,,0.05,16,LWC V2.10 B1813,2013-06-05 11:36:00,
2013-06-05 06:40:00,53.0,46.0,30.03,NNE,22,3.0,12.0,77,0.00,,,0.00,11,WeatherCatV1.15B25,2013-06-05 11:40:00,
2013-06-05 06:41:00,52.9,46.2,30.03,North,9,1.0,2.0,78,0.00,,,0.05,19,LWC V2.10 B1813,2013-06-05 11:41:00,
2013-06-05 06:45:00,53.0,46.0,30.03,NNE,22,3.0,12.0,77,0.00,,,0.00,11,WeatherCatV1.15B25,2013-06-05 11:45:00,
2013-06-05 06:46:00,52.8,46.1,30.03,North,10,2.0,3.0,78,0.00,,,0.05,32,LWC V2.10 B1813,2013-06-05 11:46:00,
2013-06-05 06:50:00,53.0,46.0,30.03,NNE,22,3.0,12.0,77,0.00,,,0.00,11,WeatherCatV1.15B25,2013-06-05 11:50:00,
2013-06-05 06:51:00,52.8,46.1,30.03,NNE,24,0.0,10.0,78,0.00,,,0.05,40,LWC V2.10 B1813,2013-06-05 11:51:00,
2013-06-05 06:55:00,52.9,46.2,30.03,North,0,1.0,9.0,78,0.00,,,0.00,18,WeatherCatV1.15B25,2013-06-05 11:55:00,
2013-06-05 06:57:00,52.8,46.1,30.03,North,355,4.0,6.0,78,0.00,,,0.05,49,LWC V2.10 B1813,2013-06-05 11:57:00,
2013-06-05 07:00:00,52.9,46.2,30.03,North,0,1.0,9.0,78,0.00,,,0.00,18,WeatherCatV1.15B25,2013-06-05 12:00:00,
2013-06-05 07:02:00,52.8,46.1,30.03,NNE,19,2.0,11.0,78,0.00,,,0.05,58,LWC V2.10 B1813,2013-06-05 12:02:00,
2013-06-05 07:05:00,52.9,46.2,30.03,North,0,1.0,9.0,78,0.00,,,0.00,18,WeatherCatV1.15B25,2013-06-05 12:05:00,
2013-06-05 07:06:00,52.8,46.1,30.03,NW,319,2.0,4.0,78,0.00,,,0.05,62,LWC V2.10 B1813,2013-06-05 12:06:00,
2013-06-05 07:10:00,52.8,46.1,30.03,North,0,2.0,10.0,78,0.00,,,0.00,43,WeatherCatV1.15B25,2013-06-05 12:10:00,
2013-06-05 07:11:00,52.9,46.2,30.03,North,0,1.0,10.0,78,0.00,,,0.05,65,LWC V2.10 B1813,2013-06-05 12:11:00,
2013-06-05 07:15:00,52.8,46.1,30.03,North,0,2.0,10.0,78,0.00,,,0.00,43,WeatherCatV1.15B25,2013-06-05 12:15:00,
2013-06-05 07:16:00,53.0,46.0,30.03,NNW,338,3.0,11.0,77,0.00,,,0.05,62,LWC V2.10 B1813,2013-06-05 12:16:00,
2013-06-05 07:20:00,52.8,46.1,30.03,North,0,2.0,10.0,78,0.00,,,0.00,43,WeatherCatV1.15B25,2013-06-05 12:20:00,
2013-06-05 07:21:00,53.0,45.6,30.03,NNW,336,1.0,11.0,76,0.00,,,0.05,65,LWC V2.10 B1813,2013-06-05 12:21:00,
2013-06-05 07:25:00,52.8,45.8,30.03,NNE,22,3.0,12.0,77,0.00,,,0.00,62,WeatherCatV1.15B25,2013-06-05 12:25:00,
2013-06-05 07:26:00,53.1,45.7,30.03,NW,311,9.0,9.0,76,0.00,,,0.05,76,LWC V2.10 B1813,2013-06-05 12:26:00,
2013-06-05 07:30:00,52.8,45.8,30.03,NNE,22,3.0,12.0,77,0.00,,,0.00,62,WeatherCatV1.15B25,2013-06-05 12:30:00,
2013-06-05 07:32:00,53.2,45.8,30.03,NW,321,2.0,7.0,76,0.00,,,0.05,90,LWC V2.10 B1813,2013-06-05 12:32:00,
2013-06-05 07:35:00,52.8,45.8,30.03,NNE,22,3.0,12.0,77,0.00,,,0.00,62,WeatherCatV1.15B25,2013-06-05 12:35:00,
2013-06-05 07:37:00,53.2,45.8,30.03,NNW,345,7.0,9.0,76,0.00,,,0.05,100,LWC V2.10 B1813,2013-06-05 12:37:00,
2013-06-05 07:40:00,53.0,45.6,30.03,NNW,338,4.0,11.0,76,0.00,,,0.00,70,WeatherCatV1.15B25,2013-06-05 12:40:00,
2013-06-05 07:42:00,53.3,45.6,30.03,NW,309,5.0,11.0,75,0.00,,,0.05,109,LWC V2.10 B1813,2013-06-05 12:42:00,
2013-06-05 07:45:00,53.0,45.6,30.03,NNW,338,4.0,11.0,76,0.00,,,0.00,70,WeatherCatV1.15B25,2013-06-05 12:45:00,
2013-06-05 07:47:00,53.3,45.6,30.03,NNW,331,4.0,6.0,75,0.00,,,0.05,121,LWC V2.10 B1813,2013-06-05 12:47:00,
2013-06-05 07:50:00,53.0,45.6,30.03,NNW,338,4.0,11.0,76,0.00,,,0.00,70,WeatherCatV1.15B25,2013-06-05 12:50:00,
2013-06-05 07:52:00,53.4,45.3,30.03,ENE,61,5.0,9.0,74,0.00,,,0.05,151,LWC V2.10 B1813,2013-06-05 12:52:00,
2013-06-05 07:55:00,53.2,45.5,30.03,North,0,4.0,12.0,75,0.00,,,0.00,103,WeatherCatV1.15B25,2013-06-05 12:55:00,
2013-06-05 07:57:00,53.5,45.4,30.03,NNW,336,5.0,11.0,74,0.00,,,0.05,146,LWC V2.10 B1813,2013-06-05 12:57:00,
2013-06-05 08:00:00,53.2,45.5,30.03,North,0,4.0,12.0,75,0.00,,,0.00,103,WeatherCatV1.15B25,2013-06-05 13:00:00,
2013-06-05 08:02:00,53.7,45.6,30.03,NNW,335,5.0,10.0,74,0.00,,,0.05,174,LWC V2.10 B1813,2013-06-05 13:02:00,
2013-06-05 08:05:00,53.2,45.5,30.03,North,0,4.0,12.0,75,0.00,,,0.00,103,WeatherCatV1.15B25,2013-06-05 13:05:00,
2013-06-05 08:07:00,53.9,45.8,30.03,NW,315,6.0,17.0,74,0.00,,,0.05,223,LWC V2.10 B1813,2013-06-05 13:07:00,
2013-06-05 08:10:00,53.4,45.3,30.03,NNW,338,4.0,14.0,74,0.00,,,0.00,149,WeatherCatV1.15B25,2013-06-05 13:10:00,
2013-06-05 08:12:00,54.1,45.6,30.03,North,0,6.0,11.0,73,0.00,,,0.05,283,LWC V2.10 B1813,2013-06-05 13:12:00,
2013-06-05 08:15:00,53.4,45.3,30.03,NNW,338,4.0,14.0,74,0.00,,,0.00,149,WeatherCatV1.15B25,2013-06-05 13:15:00,
2013-06-05 08:17:00,54.4,45.9,30.02,North,9,4.0,8.0,73,0.00,,,0.05,355,LWC V2.10 B1813,2013-06-05 13:17:00,
2013-06-05 08:20:00,53.4,45.3,30.03,NNW,338,4.0,14.0,74,0.00,,,0.00,149,WeatherCatV1.15B25,2013-06-05 13:20:00,
2013-06-05 08:22:00,54.9,46.4,30.02,North,0,11.0,12.0,73,0.00,,,0.05,390,LWC V2.10 B1813,2013-06-05 13:22:00,
2013-06-05 08:25:00,53.9,45.4,30.02,North,0,5.0,17.0,73,0.00,,,0.00,243,WeatherCatV1.15B25,2013-06-05 13:25:00,
2013-06-05 08:27:00,55.2,46.3,30.02,NW,309,11.0,12.0,72,0.00,,,0.05,385,LWC V2.10 B1813,2013-06-05 13:27:00,
2013-06-05 08:30:00,53.9,45.4,30.02,North,0,5.0,17.0,73,0.00,,,0.00,243,WeatherCatV1.15B25,2013-06-05 13:30:00,
2013-06-05 08:32:00,55.0,45.8,30.02,North,355,13.0,13.0,71,0.00,,,0.05,163,LWC V2.10 B1813,2013-06-05 13:32:00,
2013-06-05 08:35:00,53.9,45.4,30.02,North,0,5.0,17.0,73,0.00,,,0.00,243,WeatherCatV1.15B25,2013-06-05 13:35:00,
2013-06-05 08:36:00,54.7,45.5,30.01,North,355,5.0,13.0,71,0.00,,,0.05,236,LWC V2.10 B1813,2013-06-05 13:36:00,
2013-06-05 08:40:00,54.9,45.3,30.02,NNW,338,5.0,17.0,70,0.00,,,0.00,353,WeatherCatV1.15B25,2013-06-05 13:40:00,
2013-06-05 08:41:00,55.0,46.1,30.01,NE,36,2.0,10.0,72,0.00,,,0.05,492,LWC V2.10 B1813,2013-06-05 13:41:00,
2013-06-05 08:45:00,54.9,45.3,30.02,NNW,338,5.0,17.0,70,0.00,,,0.00,353,WeatherCatV1.15B25,2013-06-05 13:45:00,
2013-06-05 08:47:00,55.4,46.2,30.01,NE,42,6.0,11.0,71,0.00,,,0.05,257,LWC V2.10 B1813,2013-06-05 13:47:00,
2013-06-05 08:50:00,54.9,45.3,30.02,NNW,338,5.0,17.0,70,0.00,,,0.00,353,WeatherCatV1.15B25,2013-06-05 13:50:00,
2013-06-05 08:52:00,55.7,46.4,30.01,North,355,3.0,9.0,71,0.00,,,0.05,197,LWC V2.10 B1813,2013-06-05 13:52:00,
2013-06-05 08:55:00,54.9,45.7,30.01,NNW,338,5.0,16.0,71,0.00,,,0.00,260,WeatherCatV1.15B25,2013-06-05 13:55:00,
2013-06-05 08:57:00,56.0,46.0,30.02,NE,37,6.0,11.0,69,0.00,,,0.05,297,LWC V2.10 B1813,2013-06-05 13:57:00,
2013-06-05 09:00:00,54.9,45.7,30.01,NNW,338,5.0,16.0,71,0.00,,,0.00,260,WeatherCatV1.15B25,2013-06-05 14:00:00,
2013-06-05 09:02:00,56.5,46.1,30.02,NW,319,5.0,15.0,68,0.00,,,0.05,585,LWC V2.10 B1813,2013-06-05 14:02:00,
2013-06-05 09:05:00,54.9,45.7,30.01,NNW,338,5.0,16.0,71,0.00,,,0.00,260,WeatherCatV1.15B25,2013-06-05 14:05:00,
2013-06-05 09:07:00,56.4,45.6,30.02,NNW,333,5.0,14.0,67,0.00,,,0.05,288,LWC V2.10 B1813,2013-06-05 14:07:00,
2013-06-05 09:10:00,55.8,45.4,30.02,North,0,5.0,15.0,68,0.00,,,0.00,302,WeatherCatV1.15B25,2013-06-05 14:10:00,
2013-06-05 09:11:00,56.2,45.4,30.02,NNW,340,8.0,13.0,67,0.00,,,0.05,385,LWC V2.10 B1813,2013-06-05 14:11:00,
2013-06-05 09:15:00,55.8,45.4,30.02,North,0,5.0,15.0,68,0.00,,,0.00,302,WeatherCatV1.15B25,2013-06-05 14:15:00,
2013-06-05 09:16:00,56.2,45.8,30.02,NNE,22,4.0,12.0,68,0.00,,,0.05,236,LWC V2.10 B1813,2013-06-05 14:16:00,
2013-06-05 09:20:00,55.8,45.4,30.02,North,0,5.0,15.0,68,0.00,,,0.00,302,WeatherCatV1.15B25,2013-06-05 14:20:00,
2013-06-05 09:22:00,56.2,45.8,30.02,NNW,348,2.0,7.0,68,0.00,,,0.05,206,LWC V2.10 B1813,2013-06-05 14:22:00,
2013-06-05 09:25:00,56.3,45.5,30.02,NNE,22,7.0,15.0,67,0.00,,,0.00,364,WeatherCatV1.15B25,2013-06-05 14:25:00,
2013-06-05 09:27:00,56.2,46.2,30.03,NNW,334,4.0,6.0,69,0.00,,,0.05,229,LWC V2.10 B1813,2013-06-05 14:27:00,
2013-06-05 09:30:00,56.3,45.5,30.02,NNE,22,7.0,15.0,67,0.00,,,0.00,364,WeatherCatV1.15B25,2013-06-05 14:30:00,
2013-06-05 09:32:00,56.2,45.8,30.03,NNW,342,2.0,7.0,68,0.00,,,0.05,276,LWC V2.10 B1813,2013-06-05 14:32:00,
2013-06-05 09:35:00,56.3,45.5,30.02,NNE,22,7.0,15.0,67,0.00,,,0.00,364,WeatherCatV1.15B25,2013-06-05 14:35:00,
2013-06-05 09:37:00,56.5,46.1,30.02,NE,40,4.0,12.0,68,0.00,,,0.05,325,LWC V2.10 B1813,2013-06-05 14:37:00,
2013-06-05 09:40:00,56.2,45.8,30.03,NNW,338,5.0,16.0,68,0.00,,,0.00,226,WeatherCatV1.15B25,2013-06-05 14:40:00,
2013-06-05 09:42:00,56.9,46.1,30.02,North,355,7.0,12.0,67,0.00,,,0.05,339,LWC V2.10 B1813,2013-06-05 14:42:00,
2013-06-05 09:45:00,56.2,45.8,30.03,NNW,338,5.0,16.0,68,0.00,,,0.00,226,WeatherCatV1.15B25,2013-06-05 14:45:00,
2013-06-05 09:47:00,57.5,46.6,30.01,North,5,10.0,13.0,67,0.00,,,0.05,768,LWC V2.10 B1813,2013-06-05 14:47:00,
2013-06-05 09:50:00,56.2,45.8,30.03,NNW,338,5.0,16.0,68,0.00,,,0.00,226,WeatherCatV1.15B25,2013-06-05 14:50:00,
2013-06-05 09:52:00,58.5,46.4,30.02,NW,318,2.0,14.0,64,0.00,,,0.05,802,LWC V2.10 B1813,2013-06-05 14:52:00,
2013-06-05 09:55:00,56.6,45.8,30.02,NNW,338,4.0,13.0,67,0.00,,,0.00,337,WeatherCatV1.15B25,2013-06-05 14:55:00,
2013-06-05 09:57:00,58.5,45.5,30.01,NNE,18,11.0,15.0,62,0.00,,,0.05,411,LWC V2.10 B1813,2013-06-05 14:57:00,
2013-06-05 10:00:00,56.6,45.8,30.02,NNW,338,4.0,13.0,67,0.00,,,0.00,337,WeatherCatV1.15B25,2013-06-05 15:00:00,
2013-06-05 10:02:00,58.6,46.0,30.01,NNW,340,8.0,17.0,63,0.00,,,0.05,701,LWC V2.10 B1813,2013-06-05 15:02:00,
2013-06-05 10:05:00,56.6,45.8,30.02,NNW,338,4.0,13.0,67,0.00,,,0.00,337,WeatherCatV1.15B25,2013-06-05 15:05:00,
2013-06-05 10:07:00,59.0,46.4,30.01,NNW,341,6.0,10.0,63,0.00,,,0.05,494,LWC V2.10 B1813,2013-06-05 15:07:00,
2013-06-05 10:10:00,58.3,46.2,30.01,NNW,338,6.0,15.0,64,0.00,,,0.00,627,WeatherCatV1.15B25,2013-06-05 15:10:00,
2013-06-05 10:12:00,59.0,46.8,30.01,NNW,327,12.0,12.0,64,0.00,,,0.05,612,LWC V2.10 B1813,2013-06-05 15:12:00,
2013-06-05 10:15:00,58.3,46.2,30.01,NNW,338,6.0,15.0,64,0.00,,,0.00,627,WeatherCatV1.15B25,2013-06-05 15:15:00,
2013-06-05 10:17:00,59.4,46.8,30.01,NW,325,5.0,9.0,63,0.00,,,0.05,896,LWC V2.10 B1813,2013-06-05 15:17:00,
2013-06-05 10:20:00,58.3,46.2,30.01,NNW,338,6.0,15.0,64,0.00,,,0.00,627,WeatherCatV1.15B25,2013-06-05 15:20:00,
2013-06-05 10:22:00,60.0,46.5,30.01,NNE,30,5.0,14.0,61,0.00,,,0.05,740,LWC V2.10 B1813,2013-06-05 15:22:00,
2013-06-05 10:25:00,58.9,45.9,30.01,NW,315,6.0,18.0,62,0.00,,,0.00,693,WeatherCatV1.15B25,2013-06-05 15:25:00,
2013-06-05 10:27:00,60.3,46.8,30.01,NNW,330,4.0,11.0,61,0.00,,,0.05,726,LWC V2.10 B1813,2013-06-05 15:27:00,
2013-06-05 10:30:00,58.9,45.9,30.01,NW,315,6.0,18.0,62,0.00,,,0.00,693,WeatherCatV1.15B25,2013-06-05 15:30:00,
2013-06-05 10:32:00,60.7,47.6,30.01,NW,313,3.0,6.0,62,0.00,,,0.05,775,LWC V2.10 B1813,2013-06-05 15:32:00,
2013-06-05 10:35:00,58.9,45.9,30.01,NW,315,6.0,18.0,62,0.00,,,0.00,693,WeatherCatV1.15B25,2013-06-05 15:35:00,
2013-06-05 10:37:00,60.7,46.7,30.01,NW,313,5.0,11.0,60,0.00,,,0.05,577,LWC V2.10 B1813,2013-06-05 15:37:00,
2013-06-05 10:40:00,60.0,46.9,30.01,NW,315,5.0,16.0,62,0.00,,,0.00,693,WeatherCatV1.15B25,2013-06-05 15:40:00,
2013-06-05 10:41:00,60.4,47.3,30.01,NNW,330,0.0,5.0,62,0.00,,,0.05,550,LWC V2.10 B1813,2013-06-05 15:41:00,
2013-06-05 10:45:00,60.0,46.9,30.01,NW,315,5.0,16.0,62,0.00,,,0.00,693,WeatherCatV1.15B25,2013-06-05 15:45:00,
2013-06-05 10:46:00,60.7,47.2,30.01,NW,322,10.0,12.0,61,0.00,,,0.05,403,LWC V2.10 B1813,2013-06-05 15:46:00,
2013-06-05 10:50:00,60.0,46.9,30.01,NW,315,5.0,16.0,62,0.00,,,0.00,693,WeatherCatV1.15B25,2013-06-05 15:50:00,
2013-06-05 10:51:00,60.3,45.9,30.01,NW,326,4.0,14.0,59,0.00,,,0.05,311,LWC V2.10 B1813,2013-06-05 15:51:00,
2013-06-05 10:55:00,60.6,47.1,30.01,NW,315,5.0,16.0,61,0.00,,,0.00,562,WeatherCatV1.15B25,2013-06-05 15:55:00,
2013-06-05 10:56:00,59.7,45.8,30.01,NNW,342,11.0,14.0,60,0.00,,,0.05,338,LWC V2.10 B1813,2013-06-05 15:56:00,
2013-06-05 11:00:00,60.6,47.1,30.01,NW,315,5.0,16.0,61,0.00,,,0.00,562,WeatherCatV1.15B25,2013-06-05 16:00:00,
2013-06-05 11:01:00,59.5,45.6,30.01,NNW,330,3.0,13.0,60,0.00,,,0.05,550,LWC V2.10 B1813,2013-06-05 16:01:00,
2013-06-05 11:05:00,60.6,47.1,30.01,NW,315,5.0,16.0,61,0.00,,,0.00,562,WeatherCatV1.15B25,2013-06-05 16:05:00,
2013-06-05 11:07:00,59.8,45.9,30.01,NW,324,8.0,16.0,60,0.00,,,0.05,724,LWC V2.10 B1813,2013-06-05 16:07:00,
2013-06-05 11:10:00,60.1,46.2,30.01,NW,315,7.0,16.0,60,0.00,,,0.00,355,WeatherCatV1.15B25,2013-06-05 16:10:00,
2013-06-05 11:12:00,60.6,46.6,30.01,NNW,329,7.0,15.0,60,0.00,,,0.05,838,LWC V2.10 B1813,2013-06-05 16:12:00,
2013-06-05 11:15:00,60.1,46.2,30.01,NW,315,7.0,16.0,60,0.00,,,0.00,355,WeatherCatV1.15B25,2013-06-05 16:15:00,
2013-06-05 11:16:00,61.2,47.2,30.01,WNW,303,2.0,13.0,60,0.00,,,0.05,882,LWC V2.10 B1813,2013-06-05 16:16:00,
2013-06-05 11:20:00,60.1,46.2,30.01,NW,315,7.0,16.0,60,0.00,,,0.00,355,WeatherCatV1.15B25,2013-06-05 16:20:00,
2013-06-05 11:21:00,62.2,48.6,30.01,WSW,257,4.0,10.0,61,0.00,,,0.05,895,LWC V2.10 B1813,2013-06-05 16:21:00,
2013-06-05 11:25:00,60.1,46.6,30.01,NW,315,6.0,17.0,61,0.00,,,0.00,767,WeatherCatV1.15B25,2013-06-05 16:25:00,
2013-06-05 11:26:00,62.5,47.5,30.01,NNW,331,9.0,11.0,58,0.00,,,0.05,902,LWC V2.10 B1813,2013-06-05 16:26:00,
2013-06-05 11:30:00,60.1,46.6,30.01,NW,315,6.0,17.0,61,0.00,,,0.00,767,WeatherCatV1.15B25,2013-06-05 16:30:00,
2013-06-05 11:31:00,63.1,49.0,30.01,NW,306,2.0,4.0,60,0.00,,,0.05,940,LWC V2.10 B1813,2013-06-05 16:31:00,
2013-06-05 11:35:00,60.1,46.6,30.01,NW,315,6.0,17.0,61,0.00,,,0.00,767,WeatherCatV1.15B25,2013-06-05 16:35:00,
2013-06-05 11:36:00,63.3,49.2,30.00,WNW,284,3.0,7.0,60,0.00,,,0.05,953,LWC V2.10 B1813,2013-06-05 16:36:00,
2013-06-05 11:40:00,62.0,47.9,30.01,NW,315,4.0,14.0,60,0.00,,,0.00,889,WeatherCatV1.15B25,2013-06-05 16:40:00,
2013-06-05 11:41:00,63.9,48.8,30.01,WNW,286,5.0,15.0,58,0.00,,,0.05,1007,LWC V2.10 B1813,2013-06-05 16:41:00,
2013-06-05 11:45:00,62.0,47.9,30.01,NW,315,4.0,14.0,60,0.00,,,0.00,889,WeatherCatV1.15B25,2013-06-05 16:45:00,
2013-06-05 11:46:00,63.8,48.7,30.00,NNW,339,6.0,13.0,58,0.00,,,0.05,707,LWC V2.10 B1813,2013-06-05 16:46:00,
2013-06-05 11:50:00,62.0,47.9,30.01,NW,315,4.0,14.0,60,0.00,,,0.00,889,WeatherCatV1.15B25,2013-06-05 16:50:00,
2013-06-05 11:51:00,63.8,48.3,30.00,NE,34,4.0,10.0,57,0.00,,,0.05,1086,LWC V2.10 B1813,2013-06-05 16:51:00,
2013-06-05 11:55:00,63.4,47.9,30.01,NW,315,4.0,15.0,57,0.00,,,0.00,969,WeatherCatV1.15B25,2013-06-05 16:55:00,
2013-06-05 11:56:00,64.1,49.0,30.00,NW,323,10.0,12.0,58,0.00,,,0.05,675,LWC V2.10 B1813,2013-06-05 16:56:00,
2013-06-05 12:00:00,63.4,47.9,30.01,NW,315,4.0,15.0,57,0.00,,,0.00,969,WeatherCatV1.15B25,2013-06-05 17:00:00,
2013-06-05 12:01:00,64.0,48.9,30.00,NNE,20,0.0,2.0,58,0.00,,,0.05,515,LWC V2.10 B1813,2013-06-05 17:01:00,
2013-06-05 12:05:00,63.4,47.9,30.01,NW,315,4.0,15.0,57,0.00,,,0.00,969,WeatherCatV1.15B25,2013-06-05 17:05:00,
2013-06-05 12:07:00,63.8,47.8,30.00,North,350,8.0,13.0,56,0.00,,,0.05,541,LWC V2.10 B1813,2013-06-05 17:07:00,
2013-06-05 12:10:00,63.9,48.4,30.00,NNW,338,4.0,13.0,57,0.00,,,0.00,727,WeatherCatV1.15B25,2013-06-05 17:10:00,
2013-06-05 12:12:00,63.5,48.0,30.00,NNW,334,6.0,12.0,57,0.00,,,0.05,541,LWC V2.10 B1813,2013-06-05 17:12:00,
2013-06-05 12:15:00,63.9,48.4,30.00,NNW,338,4.0,13.0,57,0.00,,,0.00,727,WeatherCatV1.15B25,2013-06-05 17:15:00,
2013-06-05 12:17:00,63.9,48.8,30.00,West,259,1.0,9.0,58,0.00,,,0.05,721,LWC V2.10 B1813,2013-06-05 17:17:00,
2013-06-05 12:20:00,63.9,48.4,30.00,NNW,338,4.0,13.0,57,0.00,,,0.00,727,WeatherCatV1.15B25,2013-06-05 17:20:00,
2013-06-05 12:22:00,64.6,49.5,30.00,NW,320,3.0,13.0,58,0.00,,,0.05,1151,LWC V2.10 B1813,2013-06-05 17:22:00,
2013-06-05 12:25:00,63.7,48.6,30.00,NNW,338,4.0,14.0,58,0.00,,,0.00,569,WeatherCatV1.15B25,2013-06-05 17:25:00,
2013-06-05 12:27:00,65.2,48.6,30.00,North,9,5.0,12.0,55,0.00,,,0.05,1304,LWC V2.10 B1813,2013-06-05 17:27:00,
2013-06-05 12:30:00,63.7,48.6,30.00,NNW,338,4.0,14.0,58,0.00,,,0.00,569,WeatherCatV1.15B25,2013-06-05 17:30:00,
2013-06-05 12:32:00,65.3,48.7,30.00,NW,316,5.0,14.0,55,0.00,,,0.05,1148,LWC V2.10 B1813,2013-06-05 17:32:00,
2013-06-05 12:35:00,63.7,48.6,30.00,NNW,338,4.0,14.0,58,0.00,,,0.00,569,WeatherCatV1.15B25,2013-06-05 17:35:00,
2013-06-05 12:37:00,64.9,48.8,30.00,WNW,299,3.0,4.0,56,0.00,,,0.05,1204,LWC V2.10 B1813,2013-06-05 17:37:00,
2013-06-05 12:40:00,64.7,48.1,30.00,NW,315,5.0,16.0,55,0.00,,,0.00,1183,WeatherCatV1.15B25,2013-06-05 17:40:00,
2013-06-05 12:42:00,65.8,51.1,30.00,NNW,333,2.0,4.0,59,0.00,,,0.05,926,LWC V2.10 B1813,2013-06-05 17:42:00,
2013-06-05 12:45:00,64.7,48.1,30.00,NW,315,5.0,16.0,55,0.00,,,0.00,1183,WeatherCatV1.15B25,2013-06-05 17:45:00,
2013-06-05 12:47:00,65.2,48.1,30.00,NNE,26,11.0,11.0,54,0.00,,,0.05,547,LWC V2.10 B1813,2013-06-05 17:47:00,
2013-06-05 12:50:00,64.7,48.1,30.00,NW,315,5.0,16.0,55,0.00,,,0.00,1183,WeatherCatV1.15B25,2013-06-05 17:50:00,
2013-06-05 12:52:00,65.0,49.4,30.00,NNW,329,10.0,10.0,57,0.00,,,0.05,596,LWC V2.10 B1813,2013-06-05 17:52:00,
2013-06-05 12:55:00,65.3,48.2,30.00,NNW,338,6.0,15.0,54,0.00,,,0.00,914,WeatherCatV1.15B25,2013-06-05 17:55:00,
2013-06-05 12:57:00,65.1,49.5,30.00,North,5,3.0,15.0,57,0.00,,,0.05,1056,LWC V2.10 B1813,2013-06-05 17:57:00,
2013-06-05 13:00:00,65.3,48.2,30.00,NNW,338,6.0,15.0,54,0.00,,,0.00,914,WeatherCatV1.15B25,2013-06-05 18:00:00,
2013-06-05 13:02:00,65.9,49.8,30.00,NNW,328,3.0,16.0,56,0.00,,,0.05,1044,LWC V2.10 B1813,2013-06-05 18:02:00,
2013-06-05 13:05:00,65.3,48.2,30.00,NNW,338,6.0,15.0,54,0.00,,,0.00,914,WeatherCatV1.15B25,2013-06-05 18:05:00,
2013-06-05 13:07:00,65.4,48.3,29.99,NW,310,9.0,14.0,54,0.00,,,0.05,1055,LWC V2.10 B1813,2013-06-05 18:07:00,
2013-06-05 13:10:00,65.1,49.5,30.00,NNW,338,5.0,15.0,57,0.00,,,0.00,804,WeatherCatV1.15B25,2013-06-05 18:10:00,
2013-06-05 13:12:00,65.4,48.8,29.99,NE,39,4.0,11.0,55,0.00,,,0.05,1151,LWC V2.10 B1813,2013-06-05 18:12:00,
2013-06-05 13:15:00,65.1,49.5,30.00,NNW,338,5.0,15.0,57,0.00,,,0.00,804,WeatherCatV1.15B25,2013-06-05 18:15:00,
2013-06-05 13:17:00,66.0,49.8,29.99,NNE,26,6.0,10.0,56,0.00,,,0.05,1130,LWC V2.10 B1813,2013-06-05 18:17:00,
2013-06-05 13:20:00,65.1,49.5,30.00,NNW,338,5.0,15.0,57,0.00,,,0.00,804,WeatherCatV1.15B25,2013-06-05 18:20:00,
2013-06-05 13:22:00,66.6,49.9,29.99,NNE,21,4.0,11.0,55,0.00,,,0.05,1185,LWC V2.10 B1813,2013-06-05 18:22:00,
2013-06-05 13:25:00,65.5,48.9,29.99,NNW,338,7.0,17.0,55,0.00,,,0.00,1078,WeatherCatV1.15B25,2013-06-05 18:25:00,
2013-06-05 13:27:00,66.1,49.0,29.98,NNW,336,5.0,12.0,54,0.00,,,0.05,355,LWC V2.10 B1813,2013-06-05 18:27:00,
2013-06-05 13:30:00,65.5,48.9,29.99,NNW,338,7.0,17.0,55,0.00,,,0.00,1078,WeatherCatV1.15B25,2013-06-05 18:30:00,
2013-06-05 13:32:00,65.5,48.9,29.98,North,355,3.0,11.0,55,0.00,,,0.05,338,LWC V2.10 B1813,2013-06-05 18:32:00,
2013-06-05 13:35:00,65.5,48.9,29.99,NNW,338,7.0,17.0,55,0.00,,,0.00,1078,WeatherCatV1.15B25,2013-06-05 18:35:00,
2013-06-05 13:37:00,65.2,48.6,29.98,NNW,340,3.0,14.0,55,0.00,,,0.05,311,LWC V2.10 B1813,2013-06-05 18:37:00,
2013-06-05 13:40:00,66.3,49.6,29.98,NNE,22,6.0,20.0,55,0.00,,,0.00,750,WeatherCatV1.15B25,2013-06-05 18:40:00,
2013-06-05 13:42:00,65.0,48.9,29.98,West,277,11.0,13.0,56,0.00,,,0.05,292,LWC V2.10 B1813,2013-06-05 18:42:00,
2013-06-05 13:45:00,66.3,49.6,29.98,NNE,22,6.0,20.0,55,0.00,,,0.00,750,WeatherCatV1.15B25,2013-06-05 18:45:00,
2013-06-05 13:47:00,64.7,48.6,29.98,NNW,340,6.0,10.0,56,0.00,,,0.05,288,LWC V2.10 B1813,2013-06-05 18:47:00,
2013-06-05 13:50:00,66.3,49.6,29.98,NNE,22,6.0,20.0,55,0.00,,,0.00,750,WeatherCatV1.15B25,2013-06-05 18:50:00,
2013-06-05 13:52:00,64.7,48.6,29.99,NNW,336,4.0,11.0,56,0.00,,,0.05,388,LWC V2.10 B1813,2013-06-05 18:52:00,
2013-06-05 13:55:00,65.2,49.1,29.98,NW,315,5.0,15.0,56,0.00,,,0.00,308,WeatherCatV1.15B25,2013-06-05 18:55:00,
2013-06-05 13:57:00,65.1,49.5,29.99,NW,311,3.0,10.0,57,0.00,,,0.05,1301,LWC V2.10 B1813,2013-06-05 18:57:00,
2013-06-05 14:00:00,65.2,49.1,29.98,NW,315,5.0,15.0,56,0.00,,,0.00,308,WeatherCatV1.15B25,2013-06-05 19:00:00,
2013-06-05 14:02:00,66.3,50.1,29.98,West,270,9.0,11.0,56,0.00,,,0.05,708,LWC V2.10 B1813,2013-06-05 19:02:00,
2013-06-05 14:05:00,65.2,49.1,29.98,NW,315,5.0,15.0,56,0.00,,,0.00,308,WeatherCatV1.15B25,2013-06-05 19:05:00,
2013-06-05 14:07:00,66.0,49.4,29.98,NW,306,1.0,9.0,55,0.00,,,0.05,427,LWC V2.10 B1813,2013-06-05 19:07:00,
2013-06-05 14:10:00,64.9,48.3,29.99,NW,315,4.0,12.0,55,0.00,,,0.00,547,WeatherCatV1.15B25,2013-06-05 19:10:00,
2013-06-05 14:12:00,65.5,49.4,29.98,NW,318,4.0,6.0,56,0.00,,,0.05,364,LWC V2.10 B1813,2013-06-05 19:12:00,
2013-06-05 14:15:00,64.9,48.3,29.99,NW,315,4.0,12.0,55,0.00,,,0.00,547,WeatherCatV1.15B25,2013-06-05 19:15:00,
2013-06-05 14:17:00,65.1,49.9,29.98,NNE,24,3.0,7.0,58,0.00,,,0.05,420,LWC V2.10 B1813,2013-06-05 19:17:00,
2013-06-05 14:20:00,64.9,48.3,29.99,NW,315,4.0,12.0,55,0.00,,,0.00,547,WeatherCatV1.15B25,2013-06-05 19:20:00,
2013-06-05 14:22:00,65.2,49.6,29.99,NW,305,4.0,5.0,57,0.00,,,0.05,450,LWC V2.10 B1813,2013-06-05 19:22:00,
2013-06-05 14:25:00,65.9,49.3,29.98,NW,315,4.0,11.0,55,0.00,,,0.00,438,WeatherCatV1.15B25,2013-06-05 19:25:00,
2013-06-05 14:27:00,65.5,49.4,29.98,NW,311,5.0,10.0,56,0.00,,,0.05,568,LWC V2.10 B1813,2013-06-05 19:27:00,
2013-06-05 14:30:00,65.9,49.3,29.98,NW,315,4.0,11.0,55,0.00,,,0.00,438,WeatherCatV1.15B25,2013-06-05 19:30:00,
2013-06-05 14:32:00,65.9,50.7,29.98,NW,315,12.0,12.0,58,0.00,,,0.05,608,LWC V2.10 B1813,2013-06-05 19:32:00,
2013-06-05 14:35:00,65.9,49.3,29.98,NW,315,4.0,11.0,55,0.00,,,0.00,438,WeatherCatV1.15B25,2013-06-05 19:35:00,
2013-06-05 14:37:00,66.9,50.2,29.98,NW,317,11.0,11.0,55,0.00,,,0.05,1292,LWC V2.10 B1813,2013-06-05 19:37:00,
2013-06-05 14:40:00,65.3,48.7,29.98,NW,315,4.0,15.0,55,0.00,,,0.00,497,WeatherCatV1.15B25,2013-06-05 19:40:00,
2013-06-05 14:42:00,67.2,50.5,29.98,NNE,26,5.0,8.0,55,0.00,,,0.05,1032,LWC V2.10 B1813,2013-06-05 19:42:00,
2013-06-05 14:45:00,65.3,48.7,29.98,NW,315,4.0,15.0,55,0.00,,,0.00,497,WeatherCatV1.15B25,2013-06-05 19:45:00,
2013-06-05 14:47:00,67.1,49.4,29.97,NW,309,1.0,17.0,53,0.00,,,0.05,441,LWC V2.10 B1813,2013-06-05 19:47:00,
2013-06-05 14:50:00,65.3,48.7,29.98,NW,315,4.0,15.0,55,0.00,,,0.00,497,WeatherCatV1.15B25,2013-06-05 19:50:00,
2013-06-05 14:52:00,66.7,49.0,29.98,WNW,303,6.0,8.0,53,0.00,,,0.05,403,LWC V2.10 B1813,2013-06-05 19:52:00,
2013-06-05 14:55:00,66.7,49.5,29.97,NW,315,4.0,13.0,54,0.00,,,0.00,924,WeatherCatV1.15B25,2013-06-05 19:55:00,
2013-06-05 14:57:00,66.3,48.6,29.97,NNW,346,6.0,11.0,53,0.00,,,0.05,533,LWC V2.10 B1813,2013-06-05 19:57:00,
2013-06-05 15:00:00,66.7,49.5,29.97,NW,315,4.0,13.0,54,0.00,,,0.00,924,WeatherCatV1.15B25,2013-06-05 20:00:00,
2013-06-05 15:02:00,66.4,49.7,29.97,NNE,15,3.0,10.0,55,0.00,,,0.05,584,LWC V2.10 B1813,2013-06-05 20:02:00,
2013-06-05 15:05:00,66.7,49.5,29.97,NW,315,4.0,13.0,54,0.00,,,0.00,924,WeatherCatV1.15B25,2013-06-05 20:05:00,
2013-06-05 15:07:00,67.6,50.4,29.97,NW,318,14.0,14.0,54,0.00,,,0.05,1325,LWC V2.10 B1813,2013-06-05 20:07:00,
2013-06-05 15:10:00,66.7,49.5,29.98,NW,315,5.0,17.0,54,0.00,,,0.00,462,WeatherCatV1.15B25,2013-06-05 20:10:00,
2013-06-05 15:12:00,68.1,50.3,29.97,NW,313,6.0,10.0,53,0.00,,,0.05,1113,LWC V2.10 B1813,2013-06-05 20:12:00,
2013-06-05 15:15:00,66.7,49.5,29.98,NW,315,5.0,17.0,54,0.00,,,0.00,462,WeatherCatV1.15B25,2013-06-05 20:15:00,
2013-06-05 15:17:00,68.6,49.7,29.97,NNW,340,9.0,11.0,51,0.00,,,0.05,1056,LWC V2.10 B1813,2013-06-05 20:17:00,
2013-06-05 15:20:00,66.7,49.5,29.98,NW,315,5.0,17.0,54,0.00,,,0.00,462,WeatherCatV1.15B25,2013-06-05 20:20:00,
2013-06-05 15:22:00,68.8,49.9,29.97,NE,51,4.0,12.0,51,0.00,,,0.05,1062,LWC V2.10 B1813,2013-06-05 20:22:00,
2013-06-05 15:25:00,67.5,50.8,29.97,NW,315,5.0,14.0,55,0.00,,,0.00,1131,WeatherCatV1.15B25,2013-06-05 20:25:00,
2013-06-05 15:27:00,68.7,49.8,29.97,West,260,4.0,13.0,51,0.00,,,0.05,1035,LWC V2.10 B1813,2013-06-05 20:27:00,
2013-06-05 15:30:00,67.5,50.8,29.97,NW,315,5.0,14.0,55,0.00,,,0.00,1131,WeatherCatV1.15B25,2013-06-05 20:30:00,
2013-06-05 15:32:00,69.4,51.5,29.98,NNW,340,2.0,9.0,53,0.00,,,0.05,1065,LWC V2.10 B1813,2013-06-05 20:32:00,
2013-06-05 15:35:00,67.5,50.8,29.97,NW,315,5.0,14.0,55,0.00,,,0.00,1131,WeatherCatV1.15B25,2013-06-05 20:35:00,
2013-06-05 15:37:00,69.1,49.1,29.98,NNW,344,8.0,12.0,49,0.00,,,0.05,538,LWC V2.10 B1813,2013-06-05 20:37:00,
2013-06-05 15:40:00,68.7,50.9,29.97,NW,315,5.0,15.0,53,0.00,,,0.00,1059,WeatherCatV1.15B25,2013-06-05 20:40:00,
2013-06-05 15:42:00,68.4,49.6,29.97,NNW,338,0.0,11.0,51,0.00,,,0.05,1252,LWC V2.10 B1813,2013-06-05 20:42:00,
2013-06-05 15:45:00,68.7,50.9,29.97,NW,315,5.0,15.0,53,0.00,,,0.00,1059,WeatherCatV1.15B25,2013-06-05 20:45:00,
2013-06-05 15:47:00,69.2,50.8,29.97,NNW,329,6.0,9.0,52,0.00,,,0.05,534,LWC V2.10 B1813,2013-06-05 20:47:00,
2013-06-05 15:50:00,68.7,50.9,29.97,NW,315,5.0,15.0,53,0.00,,,0.00,1059,WeatherCatV1.15B25,2013-06-05 20:50:00,
2013-06-05 15:52:00,68.7,49.8,29.97,NNE,24,0.0,6.0,51,0.00,,,0.05,568,LWC V2.10 B1813,2013-06-05 20:52:00,
2013-06-05 15:55:00,69.0,50.6,29.97,NW,315,5.0,13.0,52,0.00,,,0.00,785,WeatherCatV1.15B25,2013-06-05 20:55:00,
2013-06-05 15:57:00,69.0,50.1,29.97,North,355,2.0,10.0,51,0.00,,,0.05,624,LWC V2.10 B1813,2013-06-05 20:57:00,
2013-06-05 16:00:00,69.0,50.6,29.97,NW,315,5.0,13.0,52,0.00,,,0.00,785,WeatherCatV1.15B25,2013-06-05 21:00:00,
2013-06-05 16:02:00,69.0,50.1,29.97,NNE,15,5.0,13.0,51,0.00,,,0.05,455,LWC V2.10 B1813,2013-06-05 21:02:00,
2013-06-05 16:05:00,69.0,50.6,29.97,NW,315,5.0,13.0,52,0.00,,,0.00,785,WeatherCatV1.15B25,2013-06-05 21:05:00,
2013-06-05 16:07:00,69.2,49.8,29.97,NE,42,0.0,13.0,50,0.00,,,0.05,1002,LWC V2.10 B1813,2013-06-05 21:07:00,
2013-06-05 16:10:00,69.0,50.1,29.97,NW,315,3.0,11.0,51,0.00,,,0.00,553,WeatherCatV1.15B25,2013-06-05 21:10:00,
2013-06-05 16:12:00,69.8,50.3,29.97,NNW,328,0.0,6.0,50,0.00,,,0.05,830,LWC V2.10 B1813,2013-06-05 21:12:00,
2013-06-05 16:15:00,69.0,50.1,29.97,NW,315,3.0,11.0,51,0.00,,,0.00,553,WeatherCatV1.15B25,2013-06-05 21:15:00,
2013-06-05 16:17:00,69.9,49.9,29.96,NW,315,3.0,11.0,49,0.00,,,0.05,316,LWC V2.10 B1813,2013-06-05 21:17:00,
2013-06-05 16:20:00,69.0,50.1,29.97,NW,315,3.0,11.0,51,0.00,,,0.00,553,WeatherCatV1.15B25,2013-06-05 21:20:00,
2013-06-05 16:22:00,69.3,50.4,29.97,NNW,344,3.0,3.0,51,0.00,,,0.05,408,LWC V2.10 B1813,2013-06-05 21:22:00,
2013-06-05 16:25:00,69.3,49.3,29.96,NNW,338,4.0,14.0,49,0.00,,,0.00,922,WeatherCatV1.15B25,2013-06-05 21:25:00,
2013-06-05 16:27:00,68.5,49.1,29.97,NW,323,1.0,10.0,50,0.00,,,0.05,302,LWC V2.10 B1813,2013-06-05 21:27:00,
2013-06-05 16:30:00,69.3,49.3,29.96,NNW,338,4.0,14.0,49,0.00,,,0.00,922,WeatherCatV1.15B25,2013-06-05 21:30:00,
2013-06-05 16:32:00,68.1,49.3,29.97,NE,38,2.0,8.0,51,0.00,,,0.05,341,LWC V2.10 B1813,2013-06-05 21:32:00,
2013-06-05 16:35:00,69.3,49.3,29.96,NNW,338,4.0,14.0,49,0.00,,,0.00,922,WeatherCatV1.15B25,2013-06-05 21:35:00,
2013-06-05 16:37:00,68.0,49.2,29.96,NE,40,0.0,11.0,51,0.00,,,0.05,487,LWC V2.10 B1813,2013-06-05 21:37:00,
2013-06-05 16:40:00,69.2,50.3,29.97,NNW,338,4.0,14.0,51,0.00,,,0.00,350,WeatherCatV1.15B25,2013-06-05 21:40:00,
2013-06-05 16:42:00,69.3,50.9,29.96,NW,324,6.0,11.0,52,0.00,,,0.05,584,LWC V2.10 B1813,2013-06-05 21:42:00,
2013-06-05 16:45:00,69.2,50.3,29.97,NNW,338,4.0,14.0,51,0.00,,,0.00,350,WeatherCatV1.15B25,2013-06-05 21:45:00,
2013-06-05 16:47:00,69.7,50.2,29.96,North,349,5.0,11.0,50,0.00,,,0.05,350,LWC V2.10 B1813,2013-06-05 21:47:00,
2013-06-05 16:50:00,69.2,50.3,29.97,NNW,338,4.0,14.0,51,0.00,,,0.00,350,WeatherCatV1.15B25,2013-06-05 21:50:00,
2013-06-05 16:52:00,69.2,49.8,29.96,WNW,292,3.0,5.0,50,0.00,,,0.05,387,LWC V2.10 B1813,2013-06-05 21:52:00,
2013-06-05 16:55:00,68.5,49.1,29.96,North,0,3.0,11.0,50,0.00,,,0.00,569,WeatherCatV1.15B25,2013-06-05 21:55:00,
2013-06-05 16:57:00,68.9,49.5,29.96,NW,314,0.0,7.0,50,0.00,,,0.05,1016,LWC V2.10 B1813,2013-06-05 21:57:00,
2013-06-05 17:00:00,68.5,49.1,29.96,North,0,3.0,11.0,50,0.00,,,0.00,569,WeatherCatV1.15B25,2013-06-05 22:00:00,
2013-06-05 17:02:00,69.5,51.1,29.97,NNE,13,1.0,7.0,52,0.00,,,0.05,962,LWC V2.10 B1813,2013-06-05 22:02:00,
2013-06-05 17:05:00,68.5,49.1,29.96,North,0,3.0,11.0,50,0.00,,,0.00,569,WeatherCatV1.15B25,2013-06-05 22:05:00,
2013-06-05 17:07:00,69.3,50.4,29.96,NNE,14,3.0,7.0,51,0.00,,,0.05,817,LWC V2.10 B1813,2013-06-05 22:07:00,
2013-06-05 17:10:00,69.3,50.4,29.96,NW,315,3.0,12.0,51,0.00,,,0.00,493,WeatherCatV1.15B25,2013-06-05 22:10:00,
2013-06-05 17:12:00,69.3,49.8,29.96,WNW,292,3.0,15.0,50,0.00,,,0.05,752,LWC V2.10 B1813,2013-06-05 22:12:00,
2013-06-05 17:15:00,69.3,50.4,29.96,NW,315,3.0,12.0,51,0.00,,,0.00,493,WeatherCatV1.15B25,2013-06-05 22:15:00,
2013-06-05 17:17:00,69.2,49.8,29.97,NNE,26,2.0,10.0,50,0.00,,,0.05,163,LWC V2.10 B1813,2013-06-05 22:17:00,
2013-06-05 17:20:00,69.3,50.4,29.96,NW,315,3.0,12.0,51,0.00,,,0.00,493,WeatherCatV1.15B25,2013-06-05 22:20:00,
2013-06-05 17:22:00,69.0,49.0,29.96,NNW,334,2.0,6.0,49,0.00,,,0.05,715,LWC V2.10 B1813,2013-06-05 22:22:00,
2013-06-05 17:25:00,69.4,49.9,29.97,NNE,22,5.0,15.0,50,0.00,,,0.00,787,WeatherCatV1.15B25,2013-06-05 22:25:00,
2013-06-05 17:27:00,69.2,49.2,29.96,NNE,17,7.0,11.0,49,0.00,,,0.05,675,LWC V2.10 B1813,2013-06-05 22:27:00,
2013-06-05 17:30:00,69.4,49.9,29.97,NNE,22,5.0,15.0,50,0.00,,,0.00,787,WeatherCatV1.15B25,2013-06-05 22:30:00,
2013-06-05 17:32:00,69.0,49.6,29.96,WSW,245,4.0,9.0,50,0.00,,,0.05,698,LWC V2.10 B1813,2013-06-05 22:32:00,
2013-06-05 17:35:00,69.4,49.9,29.97,NNE,22,5.0,15.0,50,0.00,,,0.00,787,WeatherCatV1.15B25,2013-06-05 22:35:00,
2013-06-05 17:37:00,68.5,49.6,29.95,NNW,331,0.0,1.0,51,0.00,,,0.05,185,LWC V2.10 B1813,2013-06-05 22:37:00,
2013-06-05 17:40:00,69.1,49.1,29.96,NNW,338,5.0,12.0,49,0.00,,,0.00,605,WeatherCatV1.15B25,2013-06-05 22:40:00,
2013-06-05 17:42:00,68.5,49.6,29.95,NNE,32,9.0,10.0,51,0.00,,,0.05,638,LWC V2.10 B1813,2013-06-05 22:42:00,
2013-06-05 17:45:00,69.1,49.1,29.96,NNW,338,5.0,12.0,49,0.00,,,0.00,605,WeatherCatV1.15B25,2013-06-05 22:45:00,
2013-06-05 17:47:00,68.3,48.4,29.95,NNW,347,3.0,11.0,49,0.00,,,0.05,114,LWC V2.10 B1813,2013-06-05 22:47:00,
2013-06-05 17:50:00,69.1,49.1,29.96,NNW,338,5.0,12.0,49,0.00,,,0.00,605,WeatherCatV1.15B25,2013-06-05 22:50:00,
2013-06-05 17:52:00,67.7,49.4,29.95,NNW,330,4.0,4.0,52,0.00,,,0.05,610,LWC V2.10 B1813,2013-06-05 22:52:00,
2013-06-05 17:55:00,68.6,49.2,29.95,NNW,338,4.0,12.0,50,0.00,,,0.00,366,WeatherCatV1.15B25,2013-06-05 22:55:00,
2013-06-05 17:57:00,68.4,50.1,29.95,NNE,32,0.0,6.0,52,0.00,,,0.05,635,LWC V2.10 B1813,2013-06-05 22:57:00,
2013-06-05 18:00:00,68.6,49.2,29.95,NNW,338,4.0,12.0,50,0.00,,,0.00,366,WeatherCatV1.15B25,2013-06-05 23:00:00,
2013-06-05 18:02:00,69.1,49.1,29.95,NNW,340,4.0,11.0,49,0.00,,,0.05,645,LWC V2.10 B1813,2013-06-05 23:02:00,
2013-06-05 18:05:00,68.6,49.2,29.95,NNW,338,4.0,12.0,50,0.00,,,0.00,366,WeatherCatV1.15B25,2013-06-05 23:05:00,
2013-06-05 18:07:00,69.2,49.8,29.95,NNE,28,6.0,7.0,50,0.00,,,0.05,626,LWC V2.10 B1813,2013-06-05 23:07:00,
2013-06-05 18:10:00,68.1,49.3,29.95,NNW,338,3.0,11.0,51,0.00,,,0.00,396,WeatherCatV1.15B25,2013-06-05 23:10:00,
2013-06-05 18:12:00,69.4,49.4,29.95,WNW,292,4.0,11.0,49,0.00,,,0.05,163,LWC V2.10 B1813,2013-06-05 23:12:00,
2013-06-05 18:15:00,68.1,49.3,29.95,NNW,338,3.0,11.0,51,0.00,,,0.00,396,WeatherCatV1.15B25,2013-06-05 23:15:00,
2013-06-05 18:17:00,68.3,48.4,29.95,NW,318,8.0,11.0,49,0.00,,,0.05,520,LWC V2.10 B1813,2013-06-05 23:17:00,
2013-06-05 18:20:00,68.1,49.3,29.95,NNW,338,3.0,11.0,51,0.00,,,0.00,396,WeatherCatV1.15B25,2013-06-05 23:20:00,
2013-06-05 18:22:00,67.7,48.9,29.95,NW,320,6.0,9.0,51,0.00,,,0.05,148,LWC V2.10 B1813,2013-06-05 23:22:00,
2013-06-05 18:25:00,69.2,49.2,29.95,NNE,22,4.0,12.0,49,0.00,,,0.00,521,WeatherCatV1.15B25,2013-06-05 23:25:00,
2013-06-05 18:27:00,67.6,48.8,29.95,NNW,345,0.0,5.0,51,0.00,,,0.05,197,LWC V2.10 B1813,2013-06-05 23:27:00,
2013-06-05 18:30:00,69.2,49.2,29.95,NNE,22,4.0,12.0,49,0.00,,,0.00,521,WeatherCatV1.15B25,2013-06-05 23:30:00,
2013-06-05 18:32:00,68.3,48.9,29.94,NW,319,9.0,14.0,50,0.00,,,0.05,519,LWC V2.10 B1813,2013-06-05 23:32:00,
2013-06-05 18:35:00,69.2,49.2,29.95,NNE,22,4.0,12.0,49,0.00,,,0.00,521,WeatherCatV1.15B25,2013-06-05 23:35:00,
2013-06-05 18:37:00,68.8,49.9,29.94,NW,323,5.0,8.0,51,0.00,,,0.05,183,LWC V2.10 B1813,2013-06-05 23:37:00,
2013-06-05 18:40:00,67.9,50.1,29.94,NW,315,4.0,12.0,53,0.00,,,0.00,304,WeatherCatV1.15B25,2013-06-05 23:40:00,
2013-06-05 18:42:00,67.9,49.1,29.94,North,355,7.0,11.0,51,0.00,,,0.05,195,LWC V2.10 B1813,2013-06-05 23:42:00,
2013-06-05 18:45:00,67.9,50.1,29.94,NW,315,4.0,12.0,53,0.00,,,0.00,304,WeatherCatV1.15B25,2013-06-05 23:45:00,
2013-06-05 18:47:00,67.5,48.7,29.94,NE,36,0.0,7.0,51,0.00,,,0.05,213,LWC V2.10 B1813,2013-06-05 23:47:00,
2013-06-05 18:50:00,67.9,50.1,29.94,NW,315,4.0,12.0,53,0.00,,,0.00,304,WeatherCatV1.15B25,2013-06-05 23:50:00,
2013-06-05 18:52:00,68.1,49.3,29.94,NNW,348,6.0,11.0,51,0.00,,,0.05,473,LWC V2.10 B1813,2013-06-05 23:52:00,
2013-06-05 18:55:00,68.3,49.5,29.94,NW,315,5.0,14.0,51,0.00,,,0.00,309,WeatherCatV1.15B25,2013-06-05 23:55:00,
2013-06-05 18:57:00,68.2,49.4,29.94,North,355,4.0,4.0,51,0.00,,,0.05,471,LWC V2.10 B1813,2013-06-05 23:57:00,
2013-06-05 19:00:00,68.3,49.5,29.94,NW,315,5.0,14.0,51,0.00,,,0.00,309,WeatherCatV1.15B25,2013-06-06 00:00:00,
2013-06-05 19:02:00,68.0,49.2,29.94,NNE,17,4.0,9.0,51,0.00,,,0.05,132,LWC V2.10 B1813,2013-06-06 00:02:00,
2013-06-05 19:05:00,68.3,49.5,29.94,NW,315,5.0,14.0,51,0.00,,,0.00,309,WeatherCatV1.15B25,2013-06-06 00:05:00,
2013-06-05 19:07:00,67.7,48.9,29.94,WNW,297,1.0,4.0,51,0.00,,,0.05,315,LWC V2.10 B1813,2013-06-06 00:07:00,
2013-06-05 19:10:00,68.0,49.2,29.94,NNW,338,4.0,15.0,51,0.00,,,0.00,414,WeatherCatV1.15B25,2013-06-06 00:10:00,
2013-06-05 19:12:00,67.8,47.9,29.94,NNW,335,4.0,8.0,49,0.00,,,0.05,299,LWC V2.10 B1813,2013-06-06 00:12:00,
2013-06-05 19:15:00,68.0,49.2,29.94,NNW,338,4.0,15.0,51,0.00,,,0.00,414,WeatherCatV1.15B25,2013-06-06 00:15:00,
2013-06-05 19:17:00,67.8,48.5,29.94,North,0,2.0,12.0,50,0.00,,,0.05,292,LWC V2.10 B1813,2013-06-06 00:17:00,
2013-06-05 19:20:00,68.0,49.2,29.94,NNW,338,4.0,15.0,51,0.00,,,0.00,414,WeatherCatV1.15B25,2013-06-06 00:20:00,
2013-06-05 19:22:00,67.7,48.4,29.94,North,0,7.0,10.0,50,0.00,,,0.05,274,LWC V2.10 B1813,2013-06-06 00:22:00,
2013-06-05 19:25:00,67.8,48.5,29.94,NNW,338,4.0,12.0,50,0.00,,,0.00,278,WeatherCatV1.15B25,2013-06-06 00:25:00,
2013-06-05 19:27:00,67.7,48.4,29.94,North,0,12.0,12.0,50,0.00,,,0.05,241,LWC V2.10 B1813,2013-06-06 00:27:00,
2013-06-05 19:30:00,67.8,48.5,29.94,NNW,338,4.0,12.0,50,0.00,,,0.00,278,WeatherCatV1.15B25,2013-06-06 00:30:00,
2013-06-05 19:32:00,67.4,48.6,29.94,WNW,294,4.0,7.0,51,0.00,,,0.05,213,LWC V2.10 B1813,2013-06-06 00:32:00,
2013-06-05 19:35:00,67.8,48.5,29.94,NNW,338,4.0,12.0,50,0.00,,,0.00,278,WeatherCatV1.15B25,2013-06-06 00:35:00,
2013-06-05 19:37:00,66.6,48.4,29.95,North,5,2.0,7.0,52,0.00,,,0.05,56,LWC V2.10 B1813,2013-06-06 00:37:00,
2013-06-05 19:40:00,67.7,48.9,29.94,NW,315,5.0,12.0,51,0.00,,,0.00,237,WeatherCatV1.15B25,2013-06-06 00:40:00,
2013-06-05 19:42:00,66.1,48.5,29.95,North,11,0.0,7.0,53,0.00,,,0.05,63,LWC V2.10 B1813,2013-06-06 00:42:00,
2013-06-05 19:45:00,67.7,48.9,29.94,NW,315,5.0,12.0,51,0.00,,,0.00,237,WeatherCatV1.15B25,2013-06-06 00:45:00,
2013-06-05 19:47:00,66.2,49.1,29.95,North,355,3.0,9.0,54,0.00,,,0.05,93,LWC V2.10 B1813,2013-06-06 00:47:00,
2013-06-05 19:50:00,67.7,48.9,29.94,NW,315,5.0,12.0,51,0.00,,,0.00,237,WeatherCatV1.15B25,2013-06-06 00:50:00,
2013-06-05 19:52:00,66.1,48.5,29.95,NW,310,4.0,11.0,53,0.00,,,0.05,118,LWC V2.10 B1813,2013-06-06 00:52:00,
2013-06-05 19:55:00,66.7,49.5,29.95,North,0,4.0,14.0,54,0.00,,,0.00,105,WeatherCatV1.15B25,2013-06-06 00:55:00,
2013-06-05 19:57:00,66.1,49.0,29.96,NNW,329,4.0,10.0,54,0.00,,,0.05,162,LWC V2.10 B1813,2013-06-06 00:57:00,
2013-06-05 20:00:00,66.7,49.5,29.95,North,0,4.0,14.0,54,0.00,,,0.00,105,WeatherCatV1.15B25,2013-06-06 01:00:00,
2013-06-05 20:02:00,65.8,48.2,29.96,NNW,332,10.0,10.0,53,0.00,,,0.05,58,LWC V2.10 B1813,2013-06-06 01:02:00,
2013-06-05 20:05:00,66.7,49.5,29.95,North,0,4.0,14.0,54,0.00,,,0.00,105,WeatherCatV1.15B25,2013-06-06 01:05:00,
2013-06-05 20:07:00,65.4,48.3,29.96,NNW,341,6.0,6.0,54,0.00,,,0.05,51,LWC V2.10 B1813,2013-06-06 01:07:00,
2013-06-05 20:10:00,66.1,48.5,29.96,North,0,4.0,11.0,53,0.00,,,0.00,108,WeatherCatV1.15B25,2013-06-06 01:10:00,
2013-06-05 20:12:00,65.2,48.1,29.96,WNW,301,4.0,6.0,54,0.00,,,0.05,88,LWC V2.10 B1813,2013-06-06 01:12:00,
2013-06-05 20:15:00,66.1,48.5,29.96,North,0,4.0,11.0,53,0.00,,,0.00,108,WeatherCatV1.15B25,2013-06-06 01:15:00,
2013-06-05 20:17:00,65.1,48.0,29.97,WNW,302,2.0,5.0,54,0.00,,,0.05,47,LWC V2.10 B1813,2013-06-06 01:17:00,
2013-06-05 20:20:00,66.1,48.5,29.96,North,0,4.0,11.0,53,0.00,,,0.00,108,WeatherCatV1.15B25,2013-06-06 01:20:00,
2013-06-05 20:22:00,65.0,48.4,29.96,NNE,32,0.0,9.0,55,0.00,,,0.05,44,LWC V2.10 B1813,2013-06-06 01:22:00,
2013-06-05 20:25:00,65.5,48.4,29.97,WNW,292,3.0,10.0,54,0.00,,,0.00,56,WeatherCatV1.15B25,2013-06-06 01:25:00,
2013-06-05 20:27:00,64.9,48.8,29.97,NNW,348,0.0,5.0,56,0.00,,,0.05,39,LWC V2.10 B1813,2013-06-06 01:27:00,
2013-06-05 20:30:00,65.5,48.4,29.97,WNW,292,3.0,10.0,54,0.00,,,0.00,56,WeatherCatV1.15B25,2013-06-06 01:30:00,
2013-06-05 20:32:00,64.8,48.7,29.97,NNW,344,2.0,6.0,56,0.00,,,0.05,33,LWC V2.10 B1813,2013-06-06 01:32:00,
2013-06-05 20:35:00,65.5,48.4,29.97,WNW,292,3.0,10.0,54,0.00,,,0.00,56,WeatherCatV1.15B25,2013-06-06 01:35:00,
2013-06-05 20:36:00,64.7,48.6,29.97,NW,323,1.0,6.0,56,0.00,,,0.05,26,LWC V2.10 B1813,2013-06-06 01:36:00,
2013-06-05 20:40:00,65.0,48.9,29.97,NNW,338,3.0,9.0,56,0.00,,,0.00,43,WeatherCatV1.15B25,2013-06-06 01:40:00,
2013-06-05 20:41:00,64.6,49.0,29.97,NNW,346,0.0,4.0,57,0.00,,,0.05,19,LWC V2.10 B1813,2013-06-06 01:41:00,
2013-06-05 20:45:00,65.0,48.9,29.97,NNW,338,3.0,9.0,56,0.00,,,0.00,43,WeatherCatV1.15B25,2013-06-06 01:45:00,
2013-06-05 20:46:00,64.3,48.7,29.97,NNW,339,3.0,3.0,57,0.00,,,0.05,18,LWC V2.10 B1813,2013-06-06 01:46:00,
2013-06-05 20:50:00,65.0,48.9,29.97,NNW,338,3.0,9.0,56,0.00,,,0.00,43,WeatherCatV1.15B25,2013-06-06 01:50:00,
2013-06-05 20:51:00,64.1,48.5,29.97,NNE,22,7.0,11.0,57,0.00,,,0.05,12,LWC V2.10 B1813,2013-06-06 01:51:00,
2013-06-05 20:55:00,64.7,49.1,29.97,NNW,338,2.0,6.0,57,0.00,,,0.00,24,WeatherCatV1.15B25,2013-06-06 01:55:00,
2013-06-05 20:56:00,63.9,48.8,29.97,NNW,340,6.0,9.0,58,0.00,,,0.05,9,LWC V2.10 B1813,2013-06-06 01:56:00,
2013-06-05 21:00:00,64.7,49.1,29.97,NNW,338,2.0,6.0,57,0.00,,,0.00,24,WeatherCatV1.15B25,2013-06-06 02:00:00,
2013-06-05 21:01:00,63.8,48.7,29.97,North,0,1.0,4.0,58,0.00,,,0.05,5,LWC V2.10 B1813,2013-06-06 02:01:00,
2013-06-05 21:05:00,64.7,49.1,29.97,NNW,338,2.0,6.0,57,0.00,,,0.00,24,WeatherCatV1.15B25,2013-06-06 02:05:00,
2013-06-05 21:06:00,63.5,48.9,29.97,NW,308,4.0,5.0,59,0.00,,,0.05,5,LWC V2.10 B1813,2013-06-06 02:06:00,
2013-06-05 21:10:00,64.1,49.0,29.97,NNE,22,3.0,11.0,58,0.00,,,0.00,11,WeatherCatV1.15B25,2013-06-06 02:10:00,
2013-06-05 21:11:00,63.2,48.6,29.97,NW,307,1.0,5.0,59,0.00,,,0.05,0,LWC V2.10 B1813,2013-06-06 02:11:00,
2013-06-05 21:15:00,64.1,49.0,29.97,NNE,22,3.0,11.0,58,0.00,,,0.00,11,WeatherCatV1.15B25,2013-06-06 02:15:00,
2013-06-05 21:16:00,63.1,49.0,29.97,NNW,345,2.0,5.0,60,0.00,,,0.05,0,LWC V2.10 B1813,2013-06-06 02:16:00,
2013-06-05 21:20:00,64.1,49.0,29.97,NNE,22,3.0,11.0,58,0.00,,,0.00,11,WeatherCatV1.15B25,2013-06-06 02:20:00,
2013-06-05 21:21:00,62.9,48.8,29.97,NW,325,4.0,5.0,60,0.00,,,0.05,0,LWC V2.10 B1813,2013-06-06 02:21:00,
2013-06-05 21:25:00,63.4,48.8,29.97,NW,315,2.0,10.0,59,0.00,,,0.00,2,WeatherCatV1.15B25,2013-06-06 02:25:00,
2013-06-05 21:26:00,62.7,49.1,29.98,NW,315,2.0,6.0,61,0.00,,,0.05,0,LWC V2.10 B1813,2013-06-06 02:26:00,
2013-06-05 21:30:00,63.4,48.8,29.97,NW,315,2.0,10.0,59,0.00,,,0.00,2,WeatherCatV1.15B25,2013-06-06 02:30:00,
2013-06-05 21:31:00,62.5,48.9,29.97,NW,315,1.0,4.0,61,0.00,,,0.05,0,LWC V2.10 B1813,2013-06-06 02:31:00,
2013-06-05 21:35:00,63.4,48.8,29.97,NW,315,2.0,10.0,59,0.00,,,0.00,2,WeatherCatV1.15B25,2013-06-06 02:35:00,
2013-06-05 21:36:00,62.3,48.7,29.98,NW,316,0.0,4.0,61,0.00,,,0.05,0,LWC V2.10 B1813,2013-06-06 02:36:00,
2013-06-05 21:40:00,62.9,49.2,29.97,NNW,338,2.0,7.0,61,0.00,,,0.00,0,WeatherCatV1.15B25,2013-06-06 02:40:00,
2013-06-05 21:41:00,62.1,48.9,29.98,NW,315,5.0,5.0,62,0.00,,,0.05,0,LWC V2.10 B1813,2013-06-06 02:41:00,
2013-06-05 21:45:00,62.9,49.2,29.97,NNW,338,2.0,7.0,61,0.00,,,0.00,0,WeatherCatV1.15B25,2013-06-06 02:45:00,
2013-06-05 21:46:00,61.9,49.2,29.98,NW,315,0.0,5.0,63,0.00,,,0.05,0,LWC V2.10 B1813,2013-06-06 02:46:00,
2013-06-05 21:50:00,62.9,49.2,29.97,NNW,338,2.0,7.0,61,0.00,,,0.00,0,WeatherCatV1.15B25,2013-06-06 02:50:00,
2013-06-05 21:51:00,61.8,49.1,29.98,NNW,331,0.0,5.0,63,0.00,,,0.05,0,LWC V2.10 B1813,2013-06-06 02:51:00,
2013-06-05 21:55:00,62.3,49.5,29.98,NW,315,2.0,6.0,63,0.00,,,0.00,0,WeatherCatV1.15B25,2013-06-06 02:55:00,
2013-06-05 21:56:00,61.6,48.9,29.98,NNW,331,4.0,5.0,63,0.00,,,0.05,0,LWC V2.10 B1813,2013-06-06 02:56:00,
2013-06-05 22:00:00,62.3,49.5,29.98,NW,315,2.0,6.0,63,0.00,,,0.00,0,WeatherCatV1.15B25,2013-06-06 03:00:00,
2013-06-05 22:01:00,61.4,49.1,29.99,NW,315,6.0,7.0,64,0.00,,,0.05,0,LWC V2.10 B1813,2013-06-06 03:01:00,
2013-06-05 22:05:00,62.3,49.5,29.98,NW,315,2.0,6.0,63,0.00,,,0.00,0,WeatherCatV1.15B25,2013-06-06 03:05:00,
2013-06-05 22:06:00,61.3,49.0,29.98,NW,318,0.0,3.0,64,0.00,,,0.05,0,LWC V2.10 B1813,2013-06-06 03:06:00,
2013-06-05 22:10:00,61.7,49.4,29.98,NNW,338,2.0,6.0,64,0.00,,,0.00,0,WeatherCatV1.15B25,2013-06-06 03:10:00,
2013-06-05 22:11:00,61.1,48.8,29.99,NW,318,4.0,4.0,64,0.00,,,0.05,0,LWC V2.10 B1813,2013-06-06 03:11:00,
2013-06-05 22:15:00,61.7,49.4,29.98,NNW,338,2.0,6.0,64,0.00,,,0.00,0,WeatherCatV1.15B25,2013-06-06 03:15:00,
2013-06-05 22:16:00,60.9,49.1,29.99,NW,319,1.0,2.0,65,0.00,,,0.05,0,LWC V2.10 B1813,2013-06-06 03:16:00,
2013-06-05 22:20:00,61.7,49.4,29.98,NNW,338,2.0,6.0,64,0.00,,,0.00,0,WeatherCatV1.15B25,2013-06-06 03:20:00,
2013-06-05 22:21:00,60.8,49.0,29.99,NW,319,4.0,7.0,65,0.00,,,0.05,0,LWC V2.10 B1813,2013-06-06 03:21:00,
2013-06-05 22:25:00,61.2,49.3,29.99,NW,315,2.0,7.0,65,0.00,,,0.00,0,WeatherCatV1.15B25,2013-06-06 03:25:00,
2013-06-05 22:26:00,60.7,49.3,29.99,NW,319,2.0,3.0,66,0.00,,,0.05,0,LWC V2.10 B1813,2013-06-06 03:26:00,
2013-06-05 22:30:00,61.2,49.3,29.99,NW,315,2.0,7.0,65,0.00,,,0.00,0,WeatherCatV1.15B25,2013-06-06 03:30:00,
2013-06-05 22:31:00,60.5,49.1,29.99,NW,322,2.0,2.0,66,0.00,,,0.05,0,LWC V2.10 B1813,2013-06-06 03:31:00,
2013-06-05 22:34:00,60.4,49.0,29.99,NW,322,3.0,5.0,66,0.00,,,0.05,0,LWC V2.10 B1813,2013-06-06 03:34:00,
2013-06-05 22:35:00,61.2,49.3,29.99,NW,315,2.0,7.0,65,0.00,,,0.00,0,WeatherCatV1.15B25,2013-06-06 03:35:00,
2013-06-05 22:36:00,60.4,49.0,30.00,NW,322,0.0,3.0,66,0.00,,,0.05,0,LWC V2.10 B1813,2013-06-06 03:36:00,
2013-06-05 22:40:00,60.8,49.4,29.99,NW,315,2.0,7.0,66,0.00,,,0.00,0,WeatherCatV1.15B25,2013-06-06 03:40:00,
2013-06-05 22:41:00,60.2,49.2,30.00,NW,322,0.0,4.0,67,0.00,,,0.05,0,LWC V2.10 B1813,2013-06-06 03:41:00,
2013-06-05 22:45:00,60.8,49.4,29.99,NW,315,2.0,7.0,66,0.00,,,0.00,0,WeatherCatV1.15B25,2013-06-06 03:45:00,
2013-06-05 22:46:00,60.2,49.2,30.00,NW,325,0.0,3.0,67,0.00,,,0.05,0,LWC V2.10 B1813,2013-06-06 03:46:00,
2013-06-05 22:50:00,60.8,49.4,29.99,NW,315,2.0,7.0,66,0.00,,,0.00,0,WeatherCatV1.15B25,2013-06-06 03:50:00,
2013-06-05 22:51:00,60.2,49.2,30.00,NW,325,0.0,5.0,67,0.00,,,0.05,0,LWC V2.10 B1813,2013-06-06 03:51:00,
2013-06-05 22:55:00,60.3,49.3,30.00,NW,315,1.0,5.0,67,0.00,,,0.00,0,WeatherCatV1.15B25,2013-06-06 03:55:00,
2013-06-05 22:56:00,60.2,49.2,30.00,NW,325,1.0,3.0,67,0.00,,,0.05,0,LWC V2.10 B1813,2013-06-06 03:56:00,
2013-06-05 23:00:00,60.3,49.3,30.00,NW,315,1.0,5.0,67,0.00,,,0.00,0,WeatherCatV1.15B25,2013-06-06 04:00:00,
2013-06-05 23:01:00,60.2,49.2,30.00,NW,325,2.0,2.0,67,0.00,,,0.05,0,LWC V2.10 B1813,2013-06-06 04:01:00,
2013-06-05 23:05:00,60.3,49.3,30.00,NW,315,1.0,5.0,67,0.00,,,0.00,0,WeatherCatV1.15B25,2013-06-06 04:05:00,
2013-06-05 23:06:00,60.3,49.3,30.00,NW,323,0.0,4.0,67,0.00,,,0.05,0,LWC V2.10 B1813,2013-06-06 04:06:00,
2013-06-05 23:10:00,60.2,49.2,30.00,NW,315,1.0,6.0,67,0.00,,,0.00,0,WeatherCatV1.15B25,2013-06-06 04:10:00,
2013-06-05 23:11:00,60.3,49.3,30.00,NW,323,4.0,4.0,67,0.00,,,0.05,0,LWC V2.10 B1813,2013-06-06 04:11:00,
2013-06-05 23:15:00,60.2,49.2,30.00,NW,315,1.0,6.0,67,0.00,,,0.00,0,WeatherCatV1.15B25,2013-06-06 04:15:00,
2013-06-05 23:16:00,60.4,49.4,30.00,NW,323,4.0,4.0,67,0.00,,,0.05,0,LWC V2.10 B1813,2013-06-06 04:16:00,
2013-06-05 23:20:00,60.2,49.2,30.00,NW,315,1.0,6.0,67,0.00,,,0.00,0,WeatherCatV1.15B25,2013-06-06 04:20:00,
2013-06-05 23:21:00,60.4,49.8,30.00,NW,323,1.0,3.0,68,0.00,,,0.05,0,LWC V2.10 B1813,2013-06-06 04:21:00,
2013-06-05 23:25:00,60.3,49.3,30.00,NW,315,2.0,6.0,67,0.00,,,0.00,0,WeatherCatV1.15B25,2013-06-06 04:25:00,
2013-06-05 23:26:00,60.4,49.8,30.00,NW,322,2.0,4.0,68,0.00,,,0.05,0,LWC V2.10 B1813,2013-06-06 04:26:00,
2013-06-05 23:30:00,60.3,49.3,30.00,NW,315,2.0,6.0,67,0.00,,,0.00,0,WeatherCatV1.15B25,2013-06-06 04:30:00,
2013-06-05 23:31:00,60.4,49.4,30.00,NW,323,0.0,4.0,67,0.00,,,0.05,0,LWC V2.10 B1813,2013-06-06 04:31:00,
2013-06-05 23:35:00,60.3,49.3,30.00,NW,315,2.0,6.0,67,0.00,,,0.00,0,WeatherCatV1.15B25,2013-06-06 04:35:00,
2013-06-05 23:36:00,60.4,49.8,30.00,NW,324,0.0,2.0,68,0.00,,,0.05,0,LWC V2.10 B1813,2013-06-06 04:36:00,
2013-06-05 23:40:00,60.4,49.8,30.00,NW,315,2.0,6.0,68,0.00,,,0.00,0,WeatherCatV1.15B25,2013-06-06 04:40:00,
2013-06-05 23:41:00,60.4,49.8,30.00,NW,323,1.0,5.0,68,0.00,,,0.05,0,LWC V2.10 B1813,2013-06-06 04:41:00,
2013-06-05 23:45:00,60.4,49.8,30.00,NW,315,2.0,6.0,68,0.00,,,0.00,0,WeatherCatV1.15B25,2013-06-06 04:45:00,
2013-06-05 23:46:00,60.4,49.8,30.00,NW,323,3.0,4.0,68,0.00,,,0.05,0,LWC V2.10 B1813,2013-06-06 04:46:00,
2013-06-05 23:50:00,60.4,49.8,30.00,NW,315,2.0,6.0,68,0.00,,,0.00,0,WeatherCatV1.15B25,2013-06-06 04:50:00,
2013-06-05 23:51:00,60.4,49.8,30.00,NNW,327,2.0,6.0,68,0.00,,,0.05,0,LWC V2.10 B1813,2013-06-06 04:51:00,
2013-06-05 23:55:00,60.4,49.8,30.00,NW,315,1.0,5.0,68,0.00,,,0.00,0,WeatherCatV1.15B25,2013-06-06 04:55:00,
2013-06-05 23:56:00,60.5,49.5,30.00,NNW,342,0.0,5.0,67,0.00,,,0.05,0,LWC V2.10 B1813,2013-06-06 04:56:00,